Wetterdaten: Dienstag, 02.10.2018
Datum Zeit Temp. Aussen Temp. o. S. +5cm Feuchte Auss Luftdruck Regen Sonnenschein Regendauer Solar Windben Empfang
02.10.2018 00:00 6,7 C 6,7 C 6,7 C 90 % 1020,5 hPa 0,0 l/m 0 min 0 min 0 W/m 6,4 km/h (2 Bft) 97,87 %
02.10.2018 00:02 6,7 C 6,7 C 6,7 C 90 % 1020,5 hPa 0,0 l/m 0 min 0 min 0 W/m 3,2 km/h (1 Bft) 97,83 %
02.10.2018 00:04 6,7 C 6,7 C 6,7 C 90 % 1020,5 hPa 0,0 l/m 0 min 0 min 0 W/m 9,7 km/h (2 Bft) 100,00 %
02.10.2018 00:08 6,8 C 6,7 C 6,7 C 90 % 1020,6 hPa 0,0 l/m 0 min 0 min 0 W/m 3,2 km/h (1 Bft) 100,00 %
02.10.2018 00:10 6,8 C 6,7 C 6,7 C 90 % 1020,5 hPa 0,0 l/m 0 min 0 min 0 W/m 6,4 km/h (2 Bft) 97,87 %
02.10.2018 00:12 6,8 C 6,7 C 6,7 C 90 % 1020,6 hPa 0,0 l/m 0 min 0 min 0 W/m 3,2 km/h (1 Bft) 97,87 %
02.10.2018 00:14 6,8 C 6,7 C 6,7 C 90 % 1020,6 hPa 0,0 l/m 0 min 0 min 0 W/m 6,4 km/h (2 Bft) 97,87 %
02.10.2018 00:16 6,8 C 6,7 C 6,7 C 90 % 1020,6 hPa 0,0 l/m 0 min 0 min 0 W/m 6,4 km/h (2 Bft) 95,65 %
02.10.2018 00:18 6,8 C 6,7 C 6,7 C 90 % 1020,5 hPa 0,0 l/m 0 min 0 min 0 W/m 3,2 km/h (1 Bft) 95,74 %
02.10.2018 00:20 6,8 C 6,7 C 6,7 C 90 % 1020,5 hPa 0,0 l/m 0 min 0 min 0 W/m 6,4 km/h (2 Bft) 95,74 %
02.10.2018 00:22 6,9 C 6,7 C 6,7 C 90 % 1020,5 hPa 0,0 l/m 0 min 0 min 0 W/m 3,2 km/h (1 Bft) 97,87 %
02.10.2018 00:24 6,9 C 6,7 C 6,7 C 90 % 1020,5 hPa 0,0 l/m 0 min 0 min 0 W/m 3,2 km/h (1 Bft) 97,87 %
02.10.2018 00:26 6,9 C 6,7 C 6,7 C 90 % 1020,4 hPa 0,0 l/m 0 min 0 min 0 W/m 3,2 km/h (1 Bft) 95,74 %
02.10.2018 00:28 6,9 C 6,7 C 6,7 C 90 % 1020,4 hPa 0,0 l/m 0 min 0 min 0 W/m 0,0 km/h (0 Bft) 97,83 %
02.10.2018 00:30 6,9 C 6,7 C 6,7 C 90 % 1020,4 hPa 0,0 l/m 0 min 0 min 0 W/m 3,2 km/h (1 Bft) 97,87 %
02.10.2018 00:32 6,9 C 6,7 C 6,7 C 90 % 1020,4 hPa 0,0 l/m 0 min 0 min 0 W/m 6,4 km/h (2 Bft) 97,87 %
02.10.2018 00:34 6,9 C 6,7 C 6,7 C 90 % 1020,4 hPa 0,0 l/m 0 min 0 min 0 W/m 3,2 km/h (1 Bft) 97,87 %
02.10.2018 00:36 7,0 C 6,7 C 6,7 C 90 % 1020,4 hPa 0,0 l/m 0 min 0 min 0 W/m 6,4 km/h (2 Bft) 97,87 %
02.10.2018 00:38 7,0 C 6,7 C 6,7 C 90 % 1020,3 hPa 0,0 l/m 0 min 0 min 0 W/m 3,2 km/h (1 Bft) 97,87 %
02.10.2018 00:40 7,0 C 6,7 C 6,7 C 90 % 1020,3 hPa 0,0 l/m 0 min 0 min 0 W/m 6,4 km/h (2 Bft) 97,83 %
02.10.2018 00:42 7,0 C 6,7 C 6,7 C 90 % 1020,3 hPa 0,0 l/m 0 min 0 min 0 W/m 6,4 km/h (2 Bft) 97,87 %
02.10.2018 00:44 7,0 C 6,7 C 6,7 C 90 % 1020,2 hPa 0,0 l/m 0 min 0 min 0 W/m 3,2 km/h (1 Bft) 97,87 %
02.10.2018 00:46 7,0 C 6,7 C 6,7 C 90 % 1020,3 hPa 0,0 l/m 0 min 0 min 0 W/m 6,4 km/h (2 Bft) 97,87 %
02.10.2018 00:48 7,1 C 6,7 C 6,7 C 90 % 1020,3 hPa 0,0 l/m 0 min 0 min 0 W/m 3,2 km/h (1 Bft) 93,62 %
02.10.2018 00:50 7,1 C 6,7 C 6,7 C 90 % 1020,4 hPa 0,0 l/m 0 min 0 min 0 W/m 3,2 km/h (1 Bft) 97,87 %
02.10.2018 00:52 7,1 C 6,7 C 6,7 C 90 % 1020,4 hPa 0,0 l/m 0 min 0 min 0 W/m 9,7 km/h (2 Bft) 95,65 %
02.10.2018 00:54 7,1 C 6,7 C 6,7 C 90 % 1020,4 hPa 0,0 l/m 0 min 0 min 0 W/m 3,2 km/h (1 Bft) 97,87 %
02.10.2018 00:56 7,1 C 6,7 C 6,7 C 90 % 1020,4 hPa 0,0 l/m 0 min 0 min 0 W/m 3,2 km/h (1 Bft) 95,74 %
02.10.2018 00:58 7,1 C 6,7 C 7,2 C 90 % 1020,4 hPa 0,0 l/m 0 min 0 min 0 W/m 6,4 km/h (2 Bft) 97,87 %
02.10.2018 01:00 7,1 C 6,7 C 6,7 C 90 % 1020,4 hPa 0,0 l/m 0 min 0 min 0 W/m 3,2 km/h (1 Bft) 95,74 %
02.10.2018 01:02 7,1 C 6,7 C 6,7 C 90 % 1020,4 hPa 0,0 l/m 0 min 0 min 0 W/m 9,7 km/h (2 Bft) 95,65 %
02.10.2018 01:04 7,2 C 6,7 C 6,7 C 90 % 1020,4 hPa 0,0 l/m 0 min 0 min 0 W/m 9,7 km/h (2 Bft) 95,74 %
02.10.2018 01:06 7,2 C 6,7 C 7,2 C 90 % 1020,4 hPa 0,0 l/m 0 min 0 min 0 W/m 9,7 km/h (2 Bft) 95,74 %
02.10.2018 01:08 7,2 C 6,7 C 7,2 C 90 % 1020,4 hPa 0,0 l/m 0 min 2 min 0 W/m 3,2 km/h (1 Bft) 93,62 %
02.10.2018 01:10 7,2 C 6,7 C 6,7 C 90 % 1020,4 hPa 0,0 l/m 0 min 2 min 0 W/m 3,2 km/h (1 Bft) 95,74 %
02.10.2018 01:12 7,2 C 6,7 C 6,7 C 91 % 1020,4 hPa 0,0 l/m 0 min 2 min 0 W/m 6,4 km/h (2 Bft) 95,74 %
02.10.2018 01:14 7,2 C 6,7 C 6,7 C 91 % 1020,4 hPa 0,0 l/m 0 min 2 min 0 W/m 6,4 km/h (2 Bft) 93,62 %
02.10.2018 01:16 7,2 C 6,7 C 6,7 C 91 % 1020,4 hPa 0,0 l/m 0 min 2 min 0 W/m 6,4 km/h (2 Bft) 95,65 %
02.10.2018 01:18 7,3 C 6,7 C 6,7 C 91 % 1020,4 hPa 0,0 l/m 0 min 2 min 0 W/m 3,2 km/h (1 Bft) 95,74 %
02.10.2018 01:20 7,3 C 6,7 C 6,7 C 91 % 1020,4 hPa 0,0 l/m 0 min 0 min 0 W/m 6,4 km/h (2 Bft) 95,74 %
02.10.2018 01:22 7,3 C 6,7 C 6,7 C 91 % 1020,5 hPa 0,0 l/m 0 min 2 min 0 W/m 3,2 km/h (1 Bft) 95,74 %
02.10.2018 01:24 7,3 C 6,1 C 6,7 C 91 % 1020,4 hPa 0,0 l/m 0 min 2 min 0 W/m 9,7 km/h (2 Bft) 95,74 %
02.10.2018 01:26 7,3 C 6,7 C 6,7 C 91 % 1020,4 hPa 0,0 l/m 0 min 2 min 0 W/m 3,2 km/h (1 Bft) 93,48 %
02.10.2018 01:28 7,3 C 6,7 C 6,7 C 91 % 1020,5 hPa 0,0 l/m 0 min 0 min 0 W/m 3,2 km/h (1 Bft) 95,74 %
02.10.2018 01:30 7,3 C 6,7 C 6,7 C 91 % 1020,5 hPa 0,0 l/m 0 min 0 min 0 W/m 6,4 km/h (2 Bft) 95,74 %
02.10.2018 01:32 7,4 C 6,7 C 6,7 C 91 % 1020,4 hPa 0,0 l/m 0 min 0 min 0 W/m 3,2 km/h (1 Bft) 93,62 %
02.10.2018 01:34 7,4 C 6,7 C 6,7 C 91 % 1020,5 hPa 0,0 l/m 0 min 0 min 0 W/m 3,2 km/h (1 Bft) 95,74 %
02.10.2018 01:36 7,4 C 6,7 C 6,7 C 91 % 1020,5 hPa 0,0 l/m 0 min 0 min 0 W/m 3,2 km/h (1 Bft) 95,74 %
02.10.2018 01:38 7,4 C 6,7 C 6,7 C 91 % 1020,4 hPa 0,0 l/m 0 min 0 min 0 W/m 12,9 km/h (3 Bft) 95,74 %
02.10.2018 01:40 7,4 C 6,7 C 6,7 C 91 % 1020,4 hPa 0,0 l/m 0 min 0 min 0 W/m 3,2 km/h (1 Bft) 93,48 %
02.10.2018 01:42 7,4 C 6,7 C 7,2 C 91 % 1020,5 hPa 0,0 l/m 0 min 0 min 0 W/m 6,4 km/h (2 Bft) 95,74 %
02.10.2018 01:44 7,4 C 6,7 C 6,7 C 91 % 1020,5 hPa 0,0 l/m 0 min 0 min 0 W/m 6,4 km/h (2 Bft) 95,74 %
02.10.2018 01:46 7,4 C 6,7 C 6,7 C 91 % 1020,5 hPa 0,0 l/m 0 min 0 min 0 W/m 6,4 km/h (2 Bft) 95,74 %
02.10.2018 01:48 7,4 C 6,7 C 7,2 C 91 % 1020,4 hPa 0,0 l/m 0 min 0 min 0 W/m 6,4 km/h (2 Bft) 95,74 %
02.10.2018 01:50 7,4 C 6,7 C 7,2 C 91 % 1020,4 hPa 0,0 l/m 0 min 0 min 0 W/m 6,4 km/h (2 Bft) 97,83 %
02.10.2018 01:52 7,4 C 6,7 C 7,2 C 91 % 1020,3 hPa 0,0 l/m 0 min 0 min 0 W/m 3,2 km/h (1 Bft) 97,87 %
02.10.2018 01:54 7,4 C 6,7 C 7,2 C 91 % 1020,3 hPa 0,0 l/m 0 min 0 min 0 W/m 6,4 km/h (2 Bft) 97,87 %
02.10.2018 01:56 7,4 C 6,7 C 7,2 C 91 % 1020,3 hPa 0,0 l/m 0 min 0 min 0 W/m 6,4 km/h (2 Bft) 95,74 %
02.10.2018 01:58 7,5 C 6,7 C 7,2 C 91 % 1020,3 hPa 0,0 l/m 0 min 2 min 0 W/m 3,2 km/h (1 Bft) 97,87 %
02.10.2018 02:00 7,5 C 6,7 C 7,2 C 91 % 1020,2 hPa 0,0 l/m 0 min 2 min 0 W/m 3,2 km/h (1 Bft) 97,87 %
02.10.2018 02:02 7,5 C 6,7 C 6,7 C 91 % 1020,2 hPa 0,0 l/m 0 min 0 min 0 W/m 0,0 km/h (0 Bft) 100,00 %
02.10.2018 02:04 7,5 C 6,7 C 6,7 C 91 % 1020,2 hPa 0,0 l/m 0 min 0 min 0 W/m 0,0 km/h (0 Bft) 97,87 %
02.10.2018 02:06 7,5 C 6,7 C 6,7 C 91 % 1020,2 hPa 0,0 l/m 0 min 0 min 0 W/m 0,0 km/h (0 Bft) 97,87 %
02.10.2018 02:08 7,5 C 6,7 C 6,7 C 91 % 1020,1 hPa 0,0 l/m 0 min 0 min 0 W/m 0,0 km/h (0 Bft) 97,87 %
02.10.2018 02:10 7,5 C 6,7 C 6,7 C 91 % 1020,1 hPa 0,0 l/m 0 min 0 min 0 W/m 0,0 km/h (0 Bft) 95,74 %
02.10.2018 02:12 7,5 C 6,7 C 6,7 C 91 % 1020,1 hPa 0,0 l/m 0 min 0 min 0 W/m 0,0 km/h (0 Bft) 100,00 %
02.10.2018 02:14 7,5 C 6,7 C 6,7 C 91 % 1020,1 hPa 0,0 l/m 0 min 0 min 0 W/m 3,2 km/h (1 Bft) 100,00 %
02.10.2018 02:16 7,5 C 6,7 C 6,7 C 91 % 1020,1 hPa 0,0 l/m 0 min 0 min 0 W/m 3,2 km/h (1 Bft) 100,00 %
02.10.2018 02:18 7,5 C 6,7 C 6,7 C 91 % 1020,1 hPa 0,0 l/m 0 min 0 min 0 W/m 0,0 km/h (0 Bft) 97,87 %
02.10.2018 02:20 7,5 C 6,7 C 6,7 C 91 % 1020,1 hPa 0,0 l/m 0 min 0 min 0 W/m 0,0 km/h (0 Bft) 100,00 %
02.10.2018 02:22 7,5 C 6,7 C 6,7 C 91 % 1020,1 hPa 0,0 l/m 0 min 0 min 0 W/m 0,0 km/h (0 Bft) 100,00 %
02.10.2018 02:24 7,5 C 6,7 C 6,7 C 91 % 1020,1 hPa 0,0 l/m 0 min 0 min 0 W/m 0,0 km/h (0 Bft) 100,00 %
02.10.2018 02:26 7,5 C 6,7 C 6,7 C 91 % 1020,1 hPa 0,0 l/m 0 min 0 min 0 W/m 3,2 km/h (1 Bft) 97,87 %
02.10.2018 02:28 7,4 C 6,7 C 6,7 C 92 % 1020,1 hPa 0,0 l/m 0 min 0 min 0 W/m 3,2 km/h (1 Bft) 97,87 %
02.10.2018 02:30 7,4 C 6,7 C 6,7 C 92 % 1020,1 hPa 0,0 l/m 0 min 0 min 0 W/m 3,2 km/h (1 Bft) 97,87 %
02.10.2018 02:32 7,4 C 6,7 C 6,7 C 92 % 1020,1 hPa 0,0 l/m 0 min 0 min 0 W/m 6,4 km/h (2 Bft) 97,87 %
02.10.2018 02:34 7,4 C 6,7 C 6,7 C 92 % 1020,1 hPa 0,0 l/m 0 min 0 min 0 W/m 3,2 km/h (1 Bft) 100,00 %
02.10.2018 02:36 7,4 C 6,7 C 7,2 C 92 % 1020,0 hPa 0,0 l/m 0 min 0 min 0 W/m 3,2 km/h (1 Bft) 100,00 %
02.10.2018 02:38 7,4 C 6,7 C 7,2 C 92 % 1020,1 hPa 0,0 l/m 0 min 0 min 0 W/m 3,2 km/h (1 Bft) 97,83 %
02.10.2018 02:40 7,4 C 6,7 C 7,2 C 92 % 1020,0 hPa 0,0 l/m 0 min 0 min 0 W/m 3,2 km/h (1 Bft) 95,74 %
02.10.2018 02:42 7,4 C 6,7 C 7,2 C 92 % 1020,0 hPa 0,0 l/m 0 min 0 min 0 W/m 3,2 km/h (1 Bft) 97,87 %
02.10.2018 02:44 7,4 C 6,7 C 7,2 C 92 % 1020,0 hPa 0,0 l/m 0 min 0 min 0 W/m 3,2 km/h (1 Bft) 97,87 %
02.10.2018 02:46 7,5 C 6,7 C 7,2 C 92 % 1020,0 hPa 0,0 l/m 0 min 0 min 0 W/m 3,2 km/h (1 Bft) 97,87 %
02.10.2018 02:48 7,5 C 6,7 C 7,2 C 92 % 1019,9 hPa 0,0 l/m 0 min 2 min 0 W/m 6,4 km/h (2 Bft) 97,87 %
02.10.2018 02:50 7,5 C 6,7 C 7,2 C 92 % 1019,9 hPa 0,0 l/m 0 min 2 min 0 W/m 6,4 km/h (2 Bft) 97,87 %
02.10.2018 02:52 7,5 C 6,7 C 7,2 C 92 % 1019,8 hPa 0,0 l/m 0 min 0 min 0 W/m 9,7 km/h (2 Bft) 95,74 %
02.10.2018 02:54 7,5 C 6,7 C 6,7 C 92 % 1019,8 hPa 0,0 l/m 0 min 0 min 0 W/m 6,4 km/h (2 Bft) 97,87 %
02.10.2018 02:56 7,5 C 6,7 C 6,7 C 92 % 1019,9 hPa 0,0 l/m 0 min 0 min 0 W/m 6,4 km/h (2 Bft) 97,83 %
02.10.2018 02:58 7,5 C 6,7 C 7,2 C 92 % 1019,9 hPa 0,0 l/m 0 min 0 min 0 W/m 0,0 km/h (0 Bft) 97,87 %
02.10.2018 03:00 7,5 C 6,7 C 7,2 C 92 % 1019,9 hPa 0,0 l/m 0 min 0 min 0 W/m 9,7 km/h (2 Bft) 97,87 %
02.10.2018 03:02 7,5 C 6,7 C 7,2 C 92 % 1019,8 hPa 0,0 l/m 0 min 0 min 0 W/m 6,4 km/h (2 Bft) 97,87 %
02.10.2018 03:04 7,5 C 6,7 C 7,2 C 92 % 1019,7 hPa 0,0 l/m 0 min 0 min 0 W/m 6,4 km/h (2 Bft) 97,87 %
02.10.2018 03:06 7,5 C 6,7 C 7,2 C 92 % 1019,7 hPa 0,0 l/m 0 min 0 min 0 W/m 3,2 km/h (1 Bft) 97,87 %
02.10.2018 03:08 7,5 C 6,7 C 7,2 C 92 % 1019,7 hPa 0,0 l/m 0 min 0 min 0 W/m 6,4 km/h (2 Bft) 97,87 %
02.10.2018 03:10 7,5 C 6,7 C 7,2 C 92 % 1019,6 hPa 0,0 l/m 0 min 0 min 0 W/m 6,4 km/h (2 Bft) 95,65 %
02.10.2018 03:12 7,4 C 6,7 C 7,2 C 92 % 1019,7 hPa 0,0 l/m 0 min 0 min 0 W/m 9,7 km/h (2 Bft) 97,83 %
02.10.2018 03:14 7,4 C 7,2 C 7,2 C 92 % 1019,7 hPa 0,0 l/m 0 min 0 min 0 W/m 6,4 km/h (2 Bft) 97,87 %
02.10.2018 03:16 7,4 C 7,2 C 7,2 C 92 % 1019,7 hPa 0,0 l/m 0 min 0 min 0 W/m 9,7 km/h (2 Bft) 97,87 %
02.10.2018 03:18 7,4 C 7,2 C 7,2 C 92 % 1019,7 hPa 0,0 l/m 0 min 0 min 0 W/m 3,2 km/h (1 Bft) 97,87 %
02.10.2018 03:20 7,4 C 7,2 C 7,2 C 92 % 1019,8 hPa 0,0 l/m 0 min 0 min 0 W/m 6,4 km/h (2 Bft) 97,83 %
02.10.2018 03:22 7,4 C 7,2 C 7,2 C 92 % 1019,8 hPa 0,0 l/m 0 min 0 min 0 W/m 6,4 km/h (2 Bft) 100,00 %
02.10.2018 03:24 7,4 C 7,2 C 7,2 C 92 % 1019,9 hPa 0,0 l/m 0 min 0 min 0 W/m 3,2 km/h (1 Bft) 97,87 %
02.10.2018 03:26 7,4 C 7,2 C 7,2 C 92 % 1019,8 hPa 0,0 l/m 0 min 0 min 0 W/m 0,0 km/h (0 Bft) 97,87 %
02.10.2018 03:28 7,5 C 7,2 C 7,2 C 92 % 1019,7 hPa 0,0 l/m 0 min 0 min 0 W/m 3,2 km/h (1 Bft) 100,00 %
02.10.2018 03:30 7,5 C 7,2 C 7,2 C 92 % 1019,6 hPa 0,0 l/m 0 min 0 min 0 W/m 6,4 km/h (2 Bft) 100,00 %
02.10.2018 03:32 7,5 C 7,2 C 7,2 C 92 % 1019,7 hPa 0,0 l/m 0 min 0 min 0 W/m 3,2 km/h (1 Bft) 100,00 %
02.10.2018 03:34 7,5 C 7,2 C 7,2 C 92 % 1019,7 hPa 0,0 l/m 0 min 0 min 0 W/m 3,2 km/h (1 Bft) 100,00 %
02.10.2018 03:36 7,5 C 7,2 C 7,2 C 92 % 1019,6 hPa 0,0 l/m 0 min 0 min 0 W/m 3,2 km/h (1 Bft) 97,87 %
02.10.2018 03:38 7,5 C 7,2 C 7,2 C 92 % 1019,6 hPa 0,0 l/m 0 min 0 min 0 W/m 3,2 km/h (1 Bft) 100,00 %
02.10.2018 03:40 7,5 C 7,2 C 7,2 C 92 % 1019,6 hPa 0,0 l/m 0 min 0 min 0 W/m 6,4 km/h (2 Bft) 97,87 %
02.10.2018 03:42 7,5 C 7,2 C 7,2 C 92 % 1019,6 hPa 0,0 l/m 0 min 0 min 0 W/m 3,2 km/h (1 Bft) 100,00 %
02.10.2018 03:44 7,5 C 7,2 C 7,2 C 92 % 1019,6 hPa 0,0 l/m 0 min 0 min 0 W/m 6,4 km/h (2 Bft) 100,00 %
02.10.2018 03:46 7,5 C 7,2 C 7,2 C 92 % 1019,6 hPa 0,0 l/m 0 min 0 min 0 W/m 6,4 km/h (2 Bft) 100,00 %
02.10.2018 03:48 7,5 C 7,2 C 7,2 C 92 % 1019,5 hPa 0,0 l/m 0 min 0 min 0 W/m 6,4 km/h (2 Bft) 100,00 %
02.10.2018 03:50 7,5 C 7,2 C 7,2 C 92 % 1019,4 hPa 0,0 l/m 0 min 0 min 0 W/m 6,4 km/h (2 Bft) 100,00 %
02.10.2018 03:52 7,6 C 7,2 C 7,2 C 92 % 1019,4 hPa 0,0 l/m 0 min 0 min 0 W/m 6,4 km/h (2 Bft) 100,00 %
02.10.2018 03:54 7,6 C 7,2 C 7,2 C 92 % 1019,4 hPa 0,0 l/m 0 min 0 min 0 W/m 6,4 km/h (2 Bft) 95,74 %
02.10.2018 03:56 7,6 C 7,2 C 7,2 C 92 % 1019,4 hPa 0,0 l/m 0 min 0 min 0 W/m 9,7 km/h (2 Bft) 97,83 %
02.10.2018 03:58 7,6 C 7,2 C 7,2 C 92 % 1019,4 hPa 0,0 l/m 0 min 0 min 0 W/m 9,7 km/h (2 Bft) 97,87 %
02.10.2018 04:00 7,6 C 7,2 C 7,2 C 92 % 1019,4 hPa 0,0 l/m 0 min 0 min 0 W/m 6,4 km/h (2 Bft) 97,87 %
02.10.2018 04:05 7,6 C 7,2 C 7,2 C 92 % 1019,3 hPa 0,0 l/m 0 min 0 min 0 W/m 9,7 km/h (2 Bft) 95,24 %
02.10.2018 04:06 7,6 C 7,2 C 7,2 C 92 % 1019,3 hPa 0,0 l/m 0 min 0 min 0 W/m 3,2 km/h (1 Bft) 95,65 %
02.10.2018 04:08 7,6 C 7,2 C 7,2 C 92 % 1019,2 hPa 0,0 l/m 0 min 0 min 0 W/m 6,4 km/h (2 Bft) 97,87 %
02.10.2018 04:10 7,6 C 7,2 C 7,2 C 92 % 1019,2 hPa 0,0 l/m 0 min 0 min 0 W/m 9,7 km/h (2 Bft) 97,87 %
02.10.2018 04:12 7,6 C 7,2 C 7,2 C 92 % 1019,2 hPa 0,0 l/m 0 min 0 min 0 W/m 9,7 km/h (2 Bft) 95,74 %
02.10.2018 04:14 7,6 C 7,2 C 7,2 C 92 % 1019,0 hPa 0,0 l/m 0 min 0 min 0 W/m 6,4 km/h (2 Bft) 97,87 %
02.10.2018 04:16 7,6 C 7,2 C 7,2 C 92 % 1019,1 hPa 0,0 l/m 0 min 0 min 0 W/m 6,4 km/h (2 Bft) 97,87 %
02.10.2018 04:18 7,6 C 7,2 C 7,2 C 92 % 1019,0 hPa 0,0 l/m 0 min 0 min 0 W/m 9,7 km/h (2 Bft) 97,83 %
02.10.2018 04:20 7,6 C 7,2 C 7,2 C 92 % 1019,0 hPa 0,0 l/m 0 min 0 min 0 W/m 6,4 km/h (2 Bft) 97,87 %
02.10.2018 04:22 7,7 C 7,2 C 7,2 C 92 % 1019,0 hPa 0,0 l/m 0 min 0 min 0 W/m 6,4 km/h (2 Bft) 97,87 %
02.10.2018 04:24 7,7 C 7,2 C 7,2 C 92 % 1019,0 hPa 0,0 l/m 0 min 0 min 0 W/m 9,7 km/h (2 Bft) 97,87 %
02.10.2018 04:26 7,7 C 7,2 C 7,2 C 92 % 1019,0 hPa 0,0 l/m 0 min 0 min 0 W/m 6,4 km/h (2 Bft) 97,87 %
02.10.2018 04:28 7,7 C 7,2 C 7,2 C 92 % 1018,9 hPa 0,0 l/m 0 min 0 min 0 W/m 6,4 km/h (2 Bft) 95,74 %
02.10.2018 04:30 7,7 C 7,2 C 7,2 C 91 % 1018,9 hPa 0,0 l/m 0 min 0 min 0 W/m 6,4 km/h (2 Bft) 97,83 %
02.10.2018 04:32 7,7 C 7,2 C 7,2 C 91 % 1018,8 hPa 0,0 l/m 0 min 0 min 0 W/m 12,9 km/h (3 Bft) 97,87 %
02.10.2018 04:34 7,7 C 7,2 C 7,2 C 91 % 1018,9 hPa 0,0 l/m 0 min 2 min 0 W/m 6,4 km/h (2 Bft) 97,87 %
02.10.2018 04:36 7,7 C 7,2 C 7,2 C 91 % 1018,9 hPa 0,0 l/m 0 min 0 min 0 W/m 6,4 km/h (2 Bft) 97,87 %
02.10.2018 04:38 7,7 C 7,2 C 7,2 C 91 % 1018,9 hPa 0,0 l/m 0 min 0 min 0 W/m 12,9 km/h (3 Bft) 97,87 %
02.10.2018 04:40 7,7 C 7,2 C 7,2 C 91 % 1018,9 hPa 0,0 l/m 0 min 0 min 0 W/m 12,9 km/h (3 Bft) 100,00 %
02.10.2018 04:42 7,7 C 7,2 C 7,2 C 91 % 1018,8 hPa 0,0 l/m 0 min 0 min 0 W/m 12,9 km/h (3 Bft) 97,83 %
02.10.2018 04:44 7,7 C 7,2 C 7,2 C 91 % 1018,8 hPa 0,0 l/m 0 min 0 min 0 W/m 9,7 km/h (2 Bft) 100,00 %
02.10.2018 04:46 7,7 C 7,2 C 7,2 C 91 % 1018,7 hPa 0,0 l/m 0 min 0 min 0 W/m 6,4 km/h (2 Bft) 97,87 %
02.10.2018 04:48 7,7 C 7,2 C 7,2 C 91 % 1018,8 hPa 0,0 l/m 0 min 0 min 0 W/m 9,7 km/h (2 Bft) 100,00 %
02.10.2018 04:50 7,7 C 7,2 C 7,2 C 91 % 1018,8 hPa 0,0 l/m 0 min 0 min 0 W/m 12,9 km/h (3 Bft) 100,00 %
02.10.2018 04:52 7,7 C 7,2 C 7,2 C 91 % 1018,9 hPa 0,0 l/m 0 min 0 min 0 W/m 9,7 km/h (2 Bft) 100,00 %
02.10.2018 04:54 7,7 C 7,2 C 7,2 C 91 % 1018,8 hPa 0,0 l/m 0 min 0 min 0 W/m 9,7 km/h (2 Bft) 100,00 %
02.10.2018 04:56 7,7 C 7,2 C 7,2 C 91 % 1018,9 hPa 0,0 l/m 0 min 0 min 0 W/m 9,7 km/h (2 Bft) 95,74 %
02.10.2018 04:58 7,7 C 7,2 C 7,2 C 91 % 1018,8 hPa 0,0 l/m 0 min 0 min 0 W/m 6,4 km/h (2 Bft) 97,87 %
02.10.2018 05:00 7,7 C 7,2 C 7,2 C 91 % 1018,8 hPa 0,0 l/m 0 min 0 min 0 W/m 9,7 km/h (2 Bft) 95,74 %
02.10.2018 05:02 7,8 C 7,2 C 7,2 C 91 % 1018,8 hPa 0,0 l/m 0 min 0 min 0 W/m 6,4 km/h (2 Bft) 95,83 %
02.10.2018 05:04 7,8 C 7,2 C 7,2 C 91 % 1018,9 hPa 0,0 l/m 0 min 0 min 0 W/m 6,4 km/h (2 Bft) 93,62 %
02.10.2018 05:06 7,8 C 7,2 C 7,2 C 91 % 1018,7 hPa 0,0 l/m 0 min 0 min 0 W/m 6,4 km/h (2 Bft) 93,62 %
02.10.2018 05:08 7,8 C 7,2 C 7,2 C 90 % 1018,7 hPa 0,0 l/m 0 min 0 min 0 W/m 12,9 km/h (3 Bft) 95,74 %
02.10.2018 05:10 7,8 C 7,2 C 7,2 C 90 % 1018,7 hPa 0,0 l/m 0 min 0 min 0 W/m 6,4 km/h (2 Bft) 97,83 %
02.10.2018 05:12 7,8 C 7,2 C 7,2 C 90 % 1018,6 hPa 0,0 l/m 0 min 0 min 0 W/m 9,7 km/h (2 Bft) 95,74 %
02.10.2018 05:14 7,8 C 7,2 C 7,2 C 90 % 1018,6 hPa 0,0 l/m 0 min 0 min 0 W/m 9,7 km/h (2 Bft) 95,74 %
02.10.2018 05:16 7,8 C 7,2 C 7,2 C 90 % 1018,6 hPa 0,0 l/m 0 min 0 min 0 W/m 12,9 km/h (3 Bft) 95,74 %
02.10.2018 05:18 7,8 C 7,2 C 7,2 C 90 % 1018,6 hPa 0,0 l/m 0 min 0 min 0 W/m 6,4 km/h (2 Bft) 95,74 %
02.10.2018 05:20 7,8 C 7,2 C 7,2 C 90 % 1018,6 hPa 0,0 l/m 0 min 0 min 0 W/m 6,4 km/h (2 Bft) 95,74 %
02.10.2018 05:22 7,8 C 7,2 C 7,2 C 90 % 1018,4 hPa 0,0 l/m 0 min 0 min 0 W/m 16,1 km/h (3 Bft) 95,65 %
02.10.2018 05:24 7,8 C 7,2 C 7,2 C 90 % 1018,5 hPa 0,0 l/m 0 min 0 min 0 W/m 9,7 km/h (2 Bft) 93,88 %
02.10.2018 05:26 7,8 C 7,2 C 7,2 C 90 % 1018,4 hPa 0,0 l/m 0 min 0 min 0 W/m 9,7 km/h (2 Bft) 95,74 %
02.10.2018 05:28 7,8 C 7,8 C 7,2 C 90 % 1018,4 hPa 0,0 l/m 0 min 0 min 0 W/m 9,7 km/h (2 Bft) 93,48 %
02.10.2018 05:30 7,8 C 7,8 C 7,2 C 90 % 1018,5 hPa 0,0 l/m 0 min 0 min 0 W/m 6,4 km/h (2 Bft) 95,74 %
02.10.2018 05:32 7,8 C 7,8 C 7,2 C 90 % 1018,5 hPa 0,0 l/m 0 min 0 min 0 W/m 6,4 km/h (2 Bft) 95,74 %
02.10.2018 05:34 7,8 C 7,8 C 7,2 C 89 % 1018,4 hPa 0,0 l/m 0 min 0 min 0 W/m 6,4 km/h (2 Bft) 95,74 %
02.10.2018 05:36 7,8 C 7,8 C 7,2 C 89 % 1018,3 hPa 0,0 l/m 0 min 0 min 0 W/m 9,7 km/h (2 Bft) 95,74 %
02.10.2018 05:38 7,9 C 7,8 C 7,2 C 89 % 1018,3 hPa 0,0 l/m 0 min 0 min 0 W/m 9,7 km/h (2 Bft) 95,74 %
02.10.2018 05:40 7,9 C 7,8 C 7,2 C 89 % 1018,3 hPa 0,0 l/m 0 min 0 min 0 W/m 9,7 km/h (2 Bft) 95,65 %
02.10.2018 05:42 7,9 C 7,8 C 7,2 C 89 % 1018,3 hPa 0,0 l/m 0 min 0 min 0 W/m 9,7 km/h (2 Bft) 95,74 %
02.10.2018 05:44 7,9 C 7,8 C 7,2 C 89 % 1018,2 hPa 0,0 l/m 0 min 0 min 0 W/m 12,9 km/h (3 Bft) 95,74 %
02.10.2018 05:46 7,9 C 7,8 C 7,2 C 89 % 1018,3 hPa 0,0 l/m 0 min 0 min 0 W/m 12,9 km/h (3 Bft) 95,74 %
02.10.2018 05:48 7,9 C 7,8 C 7,8 C 88 % 1018,2 hPa 0,0 l/m 0 min 0 min 0 W/m 9,7 km/h (2 Bft) 95,74 %
02.10.2018 05:50 7,9 C 7,8 C 7,2 C 88 % 1018,1 hPa 0,0 l/m 0 min 0 min 0 W/m 9,7 km/h (2 Bft) 91,49 %
02.10.2018 05:52 7,9 C 7,8 C 7,8 C 88 % 1018,0 hPa 0,0 l/m 0 min 0 min 0 W/m 9,7 km/h (2 Bft) 95,65 %
02.10.2018 05:54 7,9 C 7,8 C 7,2 C 88 % 1017,9 hPa 0,0 l/m 0 min 0 min 0 W/m 9,7 km/h (2 Bft) 95,65 %
02.10.2018 05:56 7,9 C 7,8 C 7,2 C 88 % 1017,9 hPa 0,0 l/m 0 min 0 min 0 W/m 9,7 km/h (2 Bft) 95,74 %
02.10.2018 05:58 7,9 C 7,8 C 7,2 C 88 % 1017,9 hPa 0,0 l/m 0 min 0 min 0 W/m 12,9 km/h (3 Bft) 97,87 %
02.10.2018 06:00 7,9 C 7,8 C 7,2 C 88 % 1017,9 hPa 0,0 l/m 0 min 0 min 0 W/m 12,9 km/h (3 Bft) 97,87 %
02.10.2018 06:02 7,9 C 7,8 C 7,2 C 87 % 1018,0 hPa 0,0 l/m 0 min 0 min 0 W/m 9,7 km/h (2 Bft) 95,74 %
02.10.2018 06:04 8,0 C 7,8 C 7,2 C 87 % 1017,9 hPa 0,0 l/m 0 min 0 min 0 W/m 9,7 km/h (2 Bft) 97,87 %
02.10.2018 06:06 8,0 C 7,8 C 7,2 C 87 % 1017,8 hPa 0,0 l/m 0 min 0 min 0 W/m 9,7 km/h (2 Bft) 95,74 %
02.10.2018 06:08 8,0 C 7,8 C 7,8 C 87 % 1017,8 hPa 0,0 l/m 0 min 0 min 0 W/m 12,9 km/h (3 Bft) 100,00 %
02.10.2018 06:10 8,0 C 7,8 C 7,8 C 87 % 1017,8 hPa 0,0 l/m 0 min 0 min 0 W/m 9,7 km/h (2 Bft) 100,00 %
02.10.2018 06:12 8,0 C 7,8 C 7,8 C 87 % 1017,8 hPa 0,0 l/m 0 min 0 min 0 W/m 12,9 km/h (3 Bft) 95,74 %
02.10.2018 06:14 8,0 C 7,8 C 7,8 C 87 % 1017,5 hPa 0,0 l/m 0 min 0 min 0 W/m 9,7 km/h (2 Bft) 100,00 %
02.10.2018 06:16 8,1 C 7,8 C 7,8 C 87 % 1017,6 hPa 0,0 l/m 0 min 0 min 0 W/m 9,7 km/h (2 Bft) 100,00 %
02.10.2018 06:18 8,1 C 7,8 C 7,8 C 86 % 1017,6 hPa 0,0 l/m 0 min 0 min 0 W/m 12,9 km/h (3 Bft) 100,00 %
02.10.2018 06:20 8,1 C 7,8 C 7,8 C 86 % 1017,6 hPa 0,0 l/m 0 min 0 min 0 W/m 9,7 km/h (2 Bft) 100,00 %
02.10.2018 06:22 8,1 C 7,8 C 7,8 C 86 % 1017,7 hPa 0,0 l/m 0 min 0 min 0 W/m 9,7 km/h (2 Bft) 97,87 %
02.10.2018 06:24 8,1 C 7,8 C 7,8 C 86 % 1017,6 hPa 0,0 l/m 0 min 0 min 0 W/m 12,9 km/h (3 Bft) 100,00 %
02.10.2018 06:26 8,1 C 7,8 C 7,8 C 86 % 1017,6 hPa 0,0 l/m 0 min 0 min 0 W/m 16,1 km/h (3 Bft) 97,83 %
02.10.2018 06:28 8,1 C 7,8 C 7,8 C 86 % 1017,5 hPa 0,0 l/m 0 min 0 min 0 W/m 22,5 km/h (4 Bft) 100,00 %
02.10.2018 06:30 8,1 C 7,8 C 7,8 C 86 % 1017,4 hPa 0,0 l/m 0 min 0 min 0 W/m 16,1 km/h (3 Bft) 100,00 %
02.10.2018 06:32 8,1 C 7,8 C 7,8 C 85 % 1017,4 hPa 0,0 l/m 0 min 0 min 0 W/m 12,9 km/h (3 Bft) 100,00 %
02.10.2018 06:34 8,2 C 7,8 C 7,8 C 85 % 1017,2 hPa 0,0 l/m 0 min 0 min 0 W/m 12,9 km/h (3 Bft) 100,00 %
02.10.2018 06:36 8,2 C 7,8 C 7,8 C 85 % 1017,3 hPa 0,0 l/m 0 min 0 min 0 W/m 9,7 km/h (2 Bft) 100,00 %
02.10.2018 06:38 8,2 C 7,8 C 7,8 C 85 % 1017,2 hPa 0,0 l/m 0 min 0 min 0 W/m 12,9 km/h (3 Bft) 100,00 %
02.10.2018 06:40 8,2 C 7,8 C 7,8 C 85 % 1017,2 hPa 0,0 l/m 0 min 0 min 0 W/m 12,9 km/h (3 Bft) 97,87 %
02.10.2018 06:42 8,2 C 7,8 C 7,8 C 84 % 1017,2 hPa 0,0 l/m 0 min 0 min 0 W/m 12,9 km/h (3 Bft) 97,87 %
02.10.2018 06:44 8,2 C 7,8 C 7,8 C 84 % 1017,3 hPa 0,0 l/m 0 min 0 min 0 W/m 16,1 km/h (3 Bft) 97,87 %
02.10.2018 06:46 8,2 C 7,8 C 7,8 C 84 % 1017,3 hPa 0,0 l/m 0 min 0 min 0 W/m 12,9 km/h (3 Bft) 95,74 %
02.10.2018 06:48 8,3 C 7,8 C 7,8 C 84 % 1017,3 hPa 0,0 l/m 0 min 0 min 0 W/m 16,1 km/h (3 Bft) 97,87 %
02.10.2018 06:50 8,3 C 7,8 C 7,8 C 84 % 1017,3 hPa 0,0 l/m 0 min 0 min 0 W/m 12,9 km/h (3 Bft) 97,83 %
02.10.2018 06:52 8,3 C 7,8 C 7,8 C 84 % 1017,3 hPa 0,0 l/m 0 min 0 min 0 W/m 16,1 km/h (3 Bft) 97,87 %
02.10.2018 06:54 8,3 C 7,8 C 7,8 C 84 % 1017,3 hPa 0,0 l/m 0 min 0 min 0 W/m 12,9 km/h (3 Bft) 97,87 %
02.10.2018 06:56 8,3 C 7,8 C 7,8 C 83 % 1017,1 hPa 0,0 l/m 0 min 0 min 0 W/m 12,9 km/h (3 Bft) 95,74 %
02.10.2018 06:58 8,3 C 7,8 C 7,8 C 83 % 1017,0 hPa 0,0 l/m 0 min 0 min 0 W/m 9,7 km/h (2 Bft) 97,87 %
02.10.2018 07:00 8,3 C 7,8 C 7,8 C 83 % 1017,2 hPa 0,0 l/m 0 min 0 min 0 W/m 9,7 km/h (2 Bft) 97,83 %
02.10.2018 07:02 8,4 C 7,8 C 7,8 C 83 % 1017,1 hPa 0,0 l/m 0 min 0 min 0 W/m 9,7 km/h (2 Bft) 97,87 %
02.10.2018 07:04 8,4 C 7,8 C 7,8 C 83 % 1017,1 hPa 0,0 l/m 0 min 0 min 0 W/m 9,7 km/h (2 Bft) 95,74 %
02.10.2018 07:06 8,4 C 7,8 C 7,8 C 83 % 1017,2 hPa 0,0 l/m 0 min 0 min 0 W/m 12,9 km/h (3 Bft) 97,87 %
02.10.2018 07:08 8,4 C 7,8 C 7,8 C 83 % 1017,1 hPa 0,0 l/m 0 min 0 min 0 W/m 12,9 km/h (3 Bft) 95,74 %
02.10.2018 07:10 8,4 C 7,8 C 7,8 C 83 % 1017,1 hPa 0,0 l/m 0 min 0 min 0 W/m 9,7 km/h (2 Bft) 82,98 %
02.10.2018 07:12 8,4 C 8,3 C 7,8 C 83 % 1017,1 hPa 0,0 l/m 0 min 0 min 0 W/m 12,9 km/h (3 Bft) 82,61 %
02.10.2018 07:14 8,4 C 7,8 C 7,8 C 83 % 1017,1 hPa 0,0 l/m 0 min 0 min 0 W/m 19,3 km/h (3 Bft) 89,36 %
02.10.2018 07:16 8,4 C 7,8 C 7,8 C 83 % 1016,9 hPa 0,0 l/m 0 min 0 min 0 W/m 6,4 km/h (2 Bft) 95,74 %
02.10.2018 07:18 8,4 C 7,8 C 7,8 C 83 % 1017,0 hPa 0,0 l/m 0 min 0 min 0 W/m 9,7 km/h (2 Bft) 87,23 %
02.10.2018 07:20 8,4 C 7,8 C 7,8 C 83 % 1017,0 hPa 0,0 l/m 0 min 0 min 0 W/m 16,1 km/h (3 Bft) 85,11 %
02.10.2018 07:22 8,4 C 8,3 C 7,8 C 83 % 1016,9 hPa 0,0 l/m 0 min 0 min 0 W/m 12,9 km/h (3 Bft) 93,62 %
02.10.2018 07:24 8,4 C 8,3 C 7,8 C 83 % 1016,9 hPa 0,0 l/m 0 min 0 min 0 W/m 6,4 km/h (2 Bft) 95,74 %
02.10.2018 07:26 8,5 C 8,3 C 7,8 C 83 % 1016,9 hPa 0,0 l/m 0 min 0 min 0 W/m 12,9 km/h (3 Bft) 97,83 %
02.10.2018 07:28 8,5 C 8,3 C 7,8 C 82 % 1016,8 hPa 0,0 l/m 0 min 0 min 0 W/m 16,1 km/h (3 Bft) 93,62 %
02.10.2018 07:30 8,5 C 8,3 C 7,8 C 82 % 1016,8 hPa 0,0 l/m 0 min 0 min 0 W/m 9,7 km/h (2 Bft) 93,62 %
02.10.2018 07:32 8,5 C 8,3 C 7,8 C 82 % 1016,8 hPa 0,0 l/m 0 min 0 min 0 W/m 12,9 km/h (3 Bft) 95,92 %
02.10.2018 07:34 8,5 C 8,3 C 7,8 C 82 % 1016,8 hPa 0,0 l/m 0 min 0 min 0 W/m 9,7 km/h (2 Bft) 82,98 %
02.10.2018 07:36 8,6 C 8,3 C 7,8 C 82 % 1016,8 hPa 0,0 l/m 0 min 0 min 0 W/m 9,7 km/h (2 Bft) 91,30 %
02.10.2018 07:38 8,5 C 8,3 C 7,8 C 82 % 1016,8 hPa 0,0 l/m 0 min 0 min 0 W/m 6,4 km/h (2 Bft) 91,49 %
02.10.2018 07:40 8,6 C 8,3 C 7,8 C 82 % 1016,8 hPa 0,0 l/m 0 min 0 min 0 W/m 6,4 km/h (2 Bft) 89,36 %
02.10.2018 07:42 8,6 C 8,3 C 7,8 C 82 % 1016,8 hPa 0,0 l/m 0 min 0 min 0 W/m 9,7 km/h (2 Bft) 93,62 %
02.10.2018 07:44 8,6 C 8,3 C 7,8 C 82 % 1016,8 hPa 0,0 l/m 0 min 0 min 0 W/m 12,9 km/h (3 Bft) 97,87 %
02.10.2018 07:46 8,6 C 8,3 C 7,8 C 82 % 1016,8 hPa 0,0 l/m 0 min 0 min 0 W/m 12,9 km/h (3 Bft) 97,87 %
02.10.2018 07:48 8,6 C 8,3 C 7,8 C 82 % 1016,6 hPa 0,0 l/m 0 min 0 min 0 W/m 16,1 km/h (3 Bft) 97,83 %
02.10.2018 07:50 8,6 C 8,3 C 7,8 C 82 % 1016,6 hPa 0,0 l/m 0 min 0 min 1 W/m 12,9 km/h (3 Bft) 97,87 %
02.10.2018 07:52 8,6 C 8,3 C 7,8 C 81 % 1016,6 hPa 0,0 l/m 0 min 0 min 5 W/m 12,9 km/h (3 Bft) 97,87 %
02.10.2018 07:54 8,6 C 8,3 C 7,8 C 81 % 1016,6 hPa 0,0 l/m 0 min 0 min 5 W/m 12,9 km/h (3 Bft) 97,87 %
02.10.2018 07:56 8,6 C 8,3 C 7,8 C 81 % 1016,6 hPa 0,0 l/m 0 min 0 min 7 W/m 12,9 km/h (3 Bft) 97,87 %
02.10.2018 07:58 8,7 C 8,3 C 7,8 C 81 % 1016,6 hPa 0,0 l/m 0 min 0 min 9 W/m 12,9 km/h (3 Bft) 97,87 %
02.10.2018 08:00 8,7 C 8,3 C 7,8 C 81 % 1016,7 hPa 0,0 l/m 0 min 0 min 9 W/m 19,3 km/h (3 Bft) 91,30 %
02.10.2018 08:02 8,7 C 8,3 C 7,8 C 81 % 1016,6 hPa 0,0 l/m 0 min 0 min 9 W/m 9,7 km/h (2 Bft) 97,87 %
02.10.2018 08:04 8,7 C 8,3 C 7,8 C 80 % 1016,6 hPa 0,0 l/m 0 min 0 min 7 W/m 16,1 km/h (3 Bft) 97,87 %
02.10.2018 08:06 8,7 C 8,3 C 8,3 C 81 % 1016,6 hPa 0,0 l/m 0 min 0 min 7 W/m 12,9 km/h (3 Bft) 95,74 %
02.10.2018 08:08 8,7 C 8,3 C 8,3 C 80 % 1016,5 hPa 0,0 l/m 0 min 0 min 7 W/m 12,9 km/h (3 Bft) 97,87 %
02.10.2018 08:10 8,8 C 8,3 C 7,8 C 80 % 1016,5 hPa 0,0 l/m 0 min 2 min 7 W/m 12,9 km/h (3 Bft) 95,65 %
02.10.2018 08:12 8,8 C 8,3 C 7,8 C 80 % 1016,5 hPa 0,0 l/m 0 min 2 min 7 W/m 19,3 km/h (3 Bft) 97,87 %
02.10.2018 08:14 8,8 C 7,8 C 7,8 C 81 % 1016,5 hPa 0,0 l/m 0 min 2 min 7 W/m 9,7 km/h (2 Bft) 97,87 %
02.10.2018 08:16 8,8 C 7,8 C 7,8 C 81 % 1016,5 hPa 0,0 l/m 0 min 2 min 8 W/m 19,3 km/h (3 Bft) 97,87 %
02.10.2018 08:18 8,8 C 7,8 C 7,8 C 81 % 1016,5 hPa 0,0 l/m 0 min 2 min 8 W/m 16,1 km/h (3 Bft) 95,74 %
02.10.2018 08:20 8,8 C 7,2 C 7,2 C 82 % 1016,5 hPa 0,0 l/m 0 min 2 min 11 W/m 9,7 km/h (2 Bft) 97,87 %
02.10.2018 08:22 8,8 C 7,2 C 7,2 C 82 % 1016,4 hPa 0,0 l/m 0 min 2 min 12 W/m 16,1 km/h (3 Bft) 95,65 %
02.10.2018 08:24 8,8 C 7,2 C 7,2 C 82 % 1016,5 hPa 0,0 l/m 0 min 2 min 12 W/m 12,9 km/h (3 Bft) 97,87 %
02.10.2018 08:26 8,8 C 7,2 C 7,2 C 83 % 1016,6 hPa 0,0 l/m 0 min 2 min 11 W/m 9,7 km/h (2 Bft) 95,74 %
02.10.2018 08:28 8,8 C 7,2 C 7,2 C 83 % 1016,5 hPa 0,0 l/m 0 min 2 min 11 W/m 6,4 km/h (2 Bft) 91,49 %
02.10.2018 08:30 8,7 C 7,2 C 7,2 C 83 % 1016,4 hPa 0,0 l/m 0 min 2 min 12 W/m 9,7 km/h (2 Bft) 97,87 %
02.10.2018 08:32 8,7 C 7,2 C 7,2 C 83 % 1016,3 hPa 0,0 l/m 0 min 2 min 15 W/m 12,9 km/h (3 Bft) 95,74 %
02.10.2018 08:34 8,7 C 7,8 C 7,2 C 83 % 1016,3 hPa 0,0 l/m 0 min 2 min 20 W/m 9,7 km/h (2 Bft) 93,48 %
02.10.2018 08:36 8,7 C 7,8 C 7,2 C 84 % 1016,3 hPa 0,0 l/m 0 min 0 min 27 W/m 9,7 km/h (2 Bft) 95,74 %
02.10.2018 08:38 8,7 C 7,8 C 7,2 C 84 % 1016,3 hPa 0,0 l/m 0 min 2 min 33 W/m 12,9 km/h (3 Bft) 93,62 %
02.10.2018 08:40 8,7 C 7,8 C 7,8 C 84 % 1016,2 hPa 0,2 l/m 0 min 2 min 31 W/m 19,3 km/h (3 Bft) 95,74 %
02.10.2018 08:42 8,7 C 7,8 C 7,8 C 84 % 1016,3 hPa 0,0 l/m 0 min 2 min 25 W/m 9,7 km/h (2 Bft) 95,74 %
02.10.2018 08:44 8,6 C 7,8 C 7,8 C 84 % 1016,2 hPa 0,0 l/m 0 min 2 min 22 W/m 12,9 km/h (3 Bft) 95,74 %
02.10.2018 08:46 8,6 C 7,8 C 7,8 C 84 % 1016,1 hPa 0,0 l/m 0 min 0 min 21 W/m 12,9 km/h (3 Bft) 91,30 %
02.10.2018 08:48 8,6 C 8,3 C 7,8 C 84 % 1016,2 hPa 0,0 l/m 0 min 2 min 22 W/m 16,1 km/h (3 Bft) 93,62 %
02.10.2018 08:50 8,6 C 8,3 C 7,8 C 84 % 1016,2 hPa 0,0 l/m 0 min 2 min 23 W/m 9,7 km/h (2 Bft) 95,74 %
02.10.2018 08:52 8,6 C 8,3 C 7,8 C 84 % 1016,2 hPa 0,0 l/m 0 min 0 min 23 W/m 9,7 km/h (2 Bft) 95,74 %
02.10.2018 08:54 8,6 C 8,3 C 7,8 C 84 % 1016,2 hPa 0,0 l/m 0 min 0 min 21 W/m 12,9 km/h (3 Bft) 95,74 %
02.10.2018 08:56 8,6 C 8,3 C 7,8 C 84 % 1016,2 hPa 0,0 l/m 0 min 0 min 24 W/m 16,1 km/h (3 Bft) 100,00 %
02.10.2018 08:58 8,6 C 8,3 C 7,8 C 84 % 1016,1 hPa 0,0 l/m 0 min 0 min 29 W/m 9,7 km/h (2 Bft) 97,83 %
02.10.2018 09:00 8,6 C 8,3 C 7,8 C 84 % 1016,1 hPa 0,0 l/m 0 min 0 min 28 W/m 12,9 km/h (3 Bft) 97,87 %
02.10.2018 09:02 8,6 C 8,3 C 7,8 C 84 % 1016,2 hPa 0,0 l/m 0 min 0 min 26 W/m 16,1 km/h (3 Bft) 97,87 %
02.10.2018 09:04 8,7 C 8,3 C 7,8 C 84 % 1016,1 hPa 0,0 l/m 0 min 0 min 21 W/m 12,9 km/h (3 Bft) 95,74 %
02.10.2018 09:06 8,7 C 8,3 C 7,8 C 84 % 1015,9 hPa 0,0 l/m 0 min 0 min 24 W/m 9,7 km/h (2 Bft) 97,87 %
02.10.2018 09:08 8,7 C 8,3 C 7,8 C 84 % 1015,8 hPa 0,0 l/m 0 min 0 min 26 W/m 16,1 km/h (3 Bft) 95,74 %
02.10.2018 09:10 8,7 C 8,3 C 7,8 C 84 % 1015,7 hPa 0,0 l/m 0 min 0 min 23 W/m 16,1 km/h (3 Bft) 95,65 %
02.10.2018 09:12 8,7 C 8,3 C 7,8 C 84 % 1015,7 hPa 0,0 l/m 0 min 0 min 24 W/m 12,9 km/h (3 Bft) 93,62 %
02.10.2018 09:14 8,7 C 8,3 C 7,8 C 85 % 1015,7 hPa 0,0 l/m 0 min 0 min 28 W/m 9,7 km/h (2 Bft) 97,87 %
02.10.2018 09:16 8,7 C 8,3 C 7,8 C 85 % 1015,6 hPa 0,0 l/m 0 min 0 min 47 W/m 12,9 km/h (3 Bft) 93,62 %
02.10.2018 09:18 8,7 C 8,3 C 7,8 C 85 % 1015,5 hPa 0,0 l/m 0 min 0 min 51 W/m 9,7 km/h (2 Bft) 97,87 %
02.10.2018 09:20 8,7 C 8,3 C 7,8 C 85 % 1015,5 hPa 0,0 l/m 0 min 0 min 36 W/m 9,7 km/h (2 Bft) 97,87 %
02.10.2018 09:22 8,7 C 8,3 C 7,8 C 85 % 1015,6 hPa 0,0 l/m 0 min 0 min 30 W/m 16,1 km/h (3 Bft) 93,48 %
02.10.2018 09:24 8,8 C 8,3 C 7,8 C 85 % 1015,5 hPa 0,0 l/m 0 min 0 min 32 W/m 16,1 km/h (3 Bft) 95,74 %
02.10.2018 09:26 8,8 C 8,3 C 7,8 C 85 % 1015,6 hPa 0,0 l/m 0 min 0 min 27 W/m 16,1 km/h (3 Bft) 95,74 %
02.10.2018 09:28 8,8 C 8,3 C 8,3 C 85 % 1015,7 hPa 0,0 l/m 0 min 0 min 25 W/m 19,3 km/h (3 Bft) 93,62 %
02.10.2018 09:30 8,8 C 8,3 C 8,3 C 85 % 1015,5 hPa 0,0 l/m 0 min 0 min 25 W/m 16,1 km/h (3 Bft) 95,74 %
02.10.2018 09:32 8,8 C 8,3 C 8,3 C 84 % 1015,6 hPa 0,0 l/m 0 min 0 min 23 W/m 12,9 km/h (3 Bft) 95,65 %
02.10.2018 09:34 8,8 C 8,3 C 8,3 C 84 % 1015,6 hPa 0,0 l/m 0 min 0 min 25 W/m 19,3 km/h (3 Bft) 93,62 %
02.10.2018 09:36 8,8 C 8,3 C 8,3 C 84 % 1015,6 hPa 0,0 l/m 0 min 0 min 27 W/m 6,4 km/h (2 Bft) 93,62 %
02.10.2018 09:38 8,9 C 8,9 C 8,3 C 84 % 1015,6 hPa 0,0 l/m 0 min 0 min 37 W/m 19,3 km/h (3 Bft) 87,23 %
02.10.2018 09:40 8,9 C 8,9 C 8,3 C 84 % 1015,6 hPa 0,0 l/m 0 min 0 min 39 W/m 22,5 km/h (4 Bft) 95,74 %
02.10.2018 09:42 8,9 C 8,9 C 8,3 C 84 % 1015,7 hPa 0,0 l/m 0 min 0 min 36 W/m 9,7 km/h (2 Bft) 93,62 %
02.10.2018 09:44 8,9 C 8,9 C 8,3 C 84 % 1015,6 hPa 0,0 l/m 0 min 0 min 41 W/m 9,7 km/h (2 Bft) 93,48 %
02.10.2018 09:46 9,0 C 8,9 C 8,3 C 84 % 1015,7 hPa 0,0 l/m 0 min 0 min 47 W/m 12,9 km/h (3 Bft) 93,62 %
02.10.2018 09:48 9,0 C 8,9 C 8,3 C 84 % 1015,6 hPa 0,0 l/m 0 min 0 min 49 W/m 16,1 km/h (3 Bft) 97,87 %
02.10.2018 09:50 9,1 C 8,9 C 8,3 C 84 % 1015,7 hPa 0,0 l/m 0 min 0 min 53 W/m 9,7 km/h (2 Bft) 97,87 %
02.10.2018 09:52 9,1 C 8,9 C 8,3 C 83 % 1015,7 hPa 0,0 l/m 0 min 0 min 54 W/m 19,3 km/h (3 Bft) 97,87 %
02.10.2018 09:54 9,1 C 8,9 C 8,3 C 83 % 1015,7 hPa 0,0 l/m 0 min 0 min 53 W/m 19,3 km/h (3 Bft) 97,14 %
02.10.2018 09:56 9,2 C 9,4 C 8,3 C 83 % 1015,7 hPa 0,0 l/m 0 min 0 min 54 W/m 12,9 km/h (3 Bft) 95,74 %
02.10.2018 09:58 9,2 C 9,4 C 8,3 C 83 % 1015,6 hPa 0,0 l/m 0 min 0 min 58 W/m 12,9 km/h (3 Bft) 95,74 %
02.10.2018 10:00 9,2 C 9,4 C 8,9 C 83 % 1015,6 hPa 0,0 l/m 0 min 0 min 64 W/m 12,9 km/h (3 Bft) 97,83 %
02.10.2018 10:02 9,3 C 9,4 C 8,9 C 83 % 1015,6 hPa 0,0 l/m 0 min 0 min 75 W/m 12,9 km/h (3 Bft) 95,92 %
02.10.2018 10:04 9,3 C 9,4 C 8,9 C 83 % 1015,6 hPa 0,0 l/m 0 min 0 min 81 W/m 12,9 km/h (3 Bft) 97,87 %
02.10.2018 10:06 9,4 C 9,4 C 8,9 C 83 % 1015,7 hPa 0,0 l/m 0 min 0 min 77 W/m 16,1 km/h (3 Bft) 91,49 %
02.10.2018 10:08 9,4 C 9,4 C 8,9 C 83 % 1015,5 hPa 0,0 l/m 0 min 0 min 56 W/m 12,9 km/h (3 Bft) 97,87 %
02.10.2018 10:10 9,4 C 9,4 C 8,9 C 83 % 1015,6 hPa 0,0 l/m 0 min 0 min 49 W/m 9,7 km/h (2 Bft) 97,83 %
02.10.2018 10:12 9,4 C 9,4 C 8,9 C 82 % 1015,8 hPa 0,0 l/m 0 min 0 min 47 W/m 9,7 km/h (2 Bft) 100,00 %
02.10.2018 10:14 9,5 C 9,4 C 8,9 C 82 % 1015,8 hPa 0,0 l/m 0 min 0 min 47 W/m 9,7 km/h (2 Bft) 100,00 %
02.10.2018 10:16 9,5 C 9,4 C 8,9 C 82 % 1015,8 hPa 0,0 l/m 0 min 0 min 54 W/m 12,9 km/h (3 Bft) 100,00 %
02.10.2018 10:18 9,5 C 9,4 C 8,9 C 82 % 1015,8 hPa 0,0 l/m 0 min 0 min 60 W/m 12,9 km/h (3 Bft) 97,87 %
02.10.2018 10:20 9,6 C 9,4 C 8,9 C 82 % 1015,6 hPa 0,0 l/m 0 min 0 min 64 W/m 16,1 km/h (3 Bft) 97,87 %
02.10.2018 10:22 9,6 C 9,4 C 8,9 C 82 % 1015,6 hPa 0,0 l/m 0 min 0 min 63 W/m 19,3 km/h (3 Bft) 100,00 %
02.10.2018 10:24 9,6 C 9,4 C 8,9 C 82 % 1015,6 hPa 0,0 l/m 0 min 0 min 62 W/m 12,9 km/h (3 Bft) 97,87 %
02.10.2018 10:26 9,7 C 9,4 C 8,9 C 82 % 1015,6 hPa 0,0 l/m 0 min 0 min 65 W/m 12,9 km/h (3 Bft) 97,87 %
02.10.2018 10:28 9,7 C 9,4 C 8,9 C 82 % 1015,5 hPa 0,0 l/m 0 min 0 min 70 W/m 12,9 km/h (3 Bft) 100,00 %
02.10.2018 10:30 9,7 C 9,4 C 8,9 C 82 % 1015,5 hPa 0,0 l/m 0 min 0 min 72 W/m 19,3 km/h (3 Bft) 100,00 %
02.10.2018 10:32 9,8 C 9,4 C 8,9 C 82 % 1015,5 hPa 0,0 l/m 0 min 0 min 70 W/m 12,9 km/h (3 Bft) 97,92 %
02.10.2018 10:34 9,8 C 9,4 C 8,9 C 82 % 1015,6 hPa 0,0 l/m 0 min 0 min 68 W/m 12,9 km/h (3 Bft) 100,00 %
02.10.2018 10:36 9,8 C 9,4 C 8,9 C 82 % 1015,5 hPa 0,0 l/m 0 min 0 min 75 W/m 22,5 km/h (4 Bft) 100,00 %
02.10.2018 10:38 9,8 C 10,0 C 8,9 C 82 % 1015,5 hPa 0,0 l/m 0 min 0 min 80 W/m 16,1 km/h (3 Bft) 97,87 %
02.10.2018 10:40 9,9 C 10,0 C 8,9 C 82 % 1015,5 hPa 0,0 l/m 0 min 0 min 79 W/m 16,1 km/h (3 Bft) 97,87 %
02.10.2018 10:42 9,9 C 10,0 C 8,9 C 82 % 1015,5 hPa 0,0 l/m 0 min 0 min 83 W/m 12,9 km/h (3 Bft) 100,00 %
02.10.2018 10:44 9,9 C 10,0 C 8,9 C 82 % 1015,5 hPa 0,0 l/m 0 min 0 min 76 W/m 22,5 km/h (4 Bft) 97,83 %
02.10.2018 10:46 9,9 C 10,0 C 8,9 C 82 % 1015,5 hPa 0,0 l/m 0 min 0 min 61 W/m 16,1 km/h (3 Bft) 97,87 %
02.10.2018 10:48 10,0 C 10,0 C 8,9 C 82 % 1015,5 hPa 0,0 l/m 0 min 0 min 55 W/m 9,7 km/h (2 Bft) 100,00 %
02.10.2018 10:50 10,0 C 9,4 C 8,9 C 82 % 1015,5 hPa 0,0 l/m 0 min 2 min 56 W/m 12,9 km/h (3 Bft) 97,87 %
02.10.2018 10:52 10,0 C 8,9 C 8,9 C 83 % 1015,5 hPa 0,0 l/m 0 min 2 min 49 W/m 12,9 km/h (3 Bft) 100,00 %
02.10.2018 10:54 10,1 C 8,3 C 8,3 C 83 % 1015,5 hPa 0,0 l/m 0 min 2 min 53 W/m 22,5 km/h (4 Bft) 97,87 %
02.10.2018 10:56 10,0 C 8,3 C 8,3 C 83 % 1015,6 hPa 0,0 l/m 0 min 2 min 56 W/m 12,9 km/h (3 Bft) 95,65 %
02.10.2018 10:58 10,0 C 8,3 C 8,3 C 84 % 1015,6 hPa 0,0 l/m 0 min 2 min 47 W/m 19,3 km/h (3 Bft) 100,00 %
02.10.2018 11:00 10,0 C 8,3 C 8,3 C 84 % 1015,6 hPa 0,0 l/m 0 min 2 min 56 W/m 12,9 km/h (3 Bft) 100,00 %
02.10.2018 11:02 10,0 C 8,3 C 8,3 C 85 % 1015,6 hPa 0,0 l/m 0 min 2 min 74 W/m 19,3 km/h (3 Bft) 97,92 %
02.10.2018 11:04 9,9 C 8,3 C 8,3 C 85 % 1015,6 hPa 0,0 l/m 0 min 2 min 68 W/m 9,7 km/h (2 Bft) 95,74 %
02.10.2018 11:06 9,9 C 8,3 C 8,3 C 86 % 1015,6 hPa 0,0 l/m 0 min 2 min 85 W/m 22,5 km/h (4 Bft) 95,83 %
02.10.2018 11:08 9,9 C 8,3 C 8,3 C 86 % 1015,6 hPa 0,0 l/m 0 min 2 min 76 W/m 16,1 km/h (3 Bft) 97,83 %
02.10.2018 11:10 9,9 C 8,3 C 8,3 C 87 % 1015,7 hPa 0,0 l/m 0 min 2 min 70 W/m 9,7 km/h (2 Bft) 97,87 %
02.10.2018 11:12 9,9 C 8,3 C 8,3 C 87 % 1015,6 hPa 0,0 l/m 0 min 2 min 71 W/m 12,9 km/h (3 Bft) 97,87 %
02.10.2018 11:14 9,9 C 8,3 C 8,3 C 87 % 1015,5 hPa 0,0 l/m 0 min 2 min 62 W/m 6,4 km/h (2 Bft) 97,87 %
02.10.2018 11:16 9,9 C 8,3 C 8,3 C 88 % 1015,5 hPa 0,0 l/m 0 min 2 min 64 W/m 6,4 km/h (2 Bft) 97,87 %
02.10.2018 11:18 9,9 C 8,3 C 8,3 C 88 % 1015,5 hPa 0,0 l/m 0 min 2 min 72 W/m 9,7 km/h (2 Bft) 97,87 %
02.10.2018 11:20 9,8 C 8,3 C 8,3 C 88 % 1015,5 hPa 0,0 l/m 0 min 2 min 81 W/m 9,7 km/h (2 Bft) 97,83 %
02.10.2018 11:22 9,8 C 8,3 C 8,3 C 89 % 1015,4 hPa 0,0 l/m 0 min 2 min 84 W/m 12,9 km/h (3 Bft) 97,87 %
02.10.2018 11:24 9,8 C 8,3 C 7,8 C 89 % 1015,4 hPa 0,0 l/m 0 min 2 min 84 W/m 12,9 km/h (3 Bft) 95,74 %
02.10.2018 11:26 9,8 C 8,3 C 7,8 C 90 % 1015,4 hPa 0,0 l/m 0 min 2 min 81 W/m 9,7 km/h (2 Bft) 97,87 %
02.10.2018 11:28 9,7 C 8,3 C 8,3 C 90 % 1015,3 hPa 0,0 l/m 0 min 2 min 80 W/m 9,7 km/h (2 Bft) 95,74 %
02.10.2018 11:30 9,7 C 8,3 C 7,8 C 90 % 1015,4 hPa 0,0 l/m 0 min 2 min 84 W/m 16,1 km/h (3 Bft) 95,74 %
02.10.2018 11:32 9,7 C 8,3 C 7,8 C 90 % 1015,4 hPa 0,0 l/m 0 min 2 min 69 W/m 12,9 km/h (3 Bft) 97,87 %
02.10.2018 11:34 9,7 C 8,3 C 7,8 C 91 % 1015,3 hPa 0,0 l/m 0 min 2 min 67 W/m 9,7 km/h (2 Bft) 97,87 %
02.10.2018 11:36 9,6 C 8,3 C 7,8 C 91 % 1015,4 hPa 0,0 l/m 0 min 2 min 77 W/m 16,1 km/h (3 Bft) 97,87 %
02.10.2018 11:38 9,6 C 8,3 C 7,8 C 91 % 1015,3 hPa 0,0 l/m 0 min 2 min 86 W/m 12,9 km/h (3 Bft) 95,74 %
02.10.2018 11:40 9,6 C 8,3 C 7,8 C 91 % 1015,3 hPa 0,0 l/m 0 min 0 min 77 W/m 16,1 km/h (3 Bft) 97,87 %
02.10.2018 11:42 9,6 C 8,3 C 7,8 C 92 % 1015,3 hPa 0,0 l/m 0 min 0 min 67 W/m 9,7 km/h (2 Bft) 97,83 %
02.10.2018 11:44 9,6 C 8,3 C 7,8 C 92 % 1015,3 hPa 0,0 l/m 0 min 2 min 54 W/m 12,9 km/h (3 Bft) 97,87 %
02.10.2018 11:46 9,6 C 8,3 C 7,8 C 92 % 1015,3 hPa 0,2 l/m 0 min 0 min 53 W/m 9,7 km/h (2 Bft) 97,87 %
02.10.2018 11:48 9,5 C 8,3 C 7,8 C 92 % 1015,3 hPa 0,0 l/m 0 min 0 min 49 W/m 9,7 km/h (2 Bft) 97,87 %
02.10.2018 11:50 9,5 C 8,3 C 7,8 C 92 % 1015,3 hPa 0,0 l/m 0 min 0 min 59 W/m 12,9 km/h (3 Bft) 97,87 %
02.10.2018 11:52 9,5 C 8,3 C 7,8 C 92 % 1015,3 hPa 0,0 l/m 0 min 0 min 65 W/m 12,9 km/h (3 Bft) 95,74 %
02.10.2018 11:54 9,5 C 8,3 C 8,3 C 93 % 1015,4 hPa 0,0 l/m 0 min 0 min 72 W/m 16,1 km/h (3 Bft) 97,83 %
02.10.2018 11:56 9,5 C 8,3 C 8,3 C 93 % 1015,3 hPa 0,0 l/m 0 min 0 min 82 W/m 12,9 km/h (3 Bft) 95,74 %
02.10.2018 11:58 9,5 C 8,3 C 8,3 C 93 % 1015,3 hPa 0,0 l/m 0 min 0 min 76 W/m 12,9 km/h (3 Bft) 100,00 %
02.10.2018 12:00 9,5 C 8,3 C 8,3 C 93 % 1015,3 hPa 0,0 l/m 0 min 0 min 70 W/m 12,9 km/h (3 Bft) 97,87 %
02.10.2018 12:02 9,5 C 8,3 C 8,3 C 93 % 1015,3 hPa 0,0 l/m 0 min 0 min 98 W/m 9,7 km/h (2 Bft) 100,00 %
02.10.2018 12:04 9,5 C 8,3 C 8,3 C 94 % 1015,3 hPa 0,0 l/m 0 min 0 min 95 W/m 9,7 km/h (2 Bft) 95,74 %
02.10.2018 12:08 9,5 C 8,3 C 8,3 C 94 % 1015,2 hPa 0,0 l/m 0 min 4 min 93 W/m 16,1 km/h (3 Bft) 93,55 %
02.10.2018 12:10 9,5 C 8,3 C 8,3 C 94 % 1015,2 hPa 0,0 l/m 0 min 2 min 97 W/m 16,1 km/h (3 Bft) 97,87 %
02.10.2018 12:12 9,5 C 8,9 C 8,3 C 94 % 1015,2 hPa 0,0 l/m 0 min 2 min 98 W/m 12,9 km/h (3 Bft) 97,87 %
02.10.2018 12:14 9,6 C 8,9 C 8,3 C 94 % 1015,2 hPa 0,0 l/m 0 min 2 min 81 W/m 9,7 km/h (2 Bft) 97,87 %
02.10.2018 12:16 9,6 C 8,3 C 8,3 C 94 % 1015,2 hPa 0,0 l/m 0 min 0 min 70 W/m 16,1 km/h (3 Bft) 93,62 %
02.10.2018 12:18 9,6 C 8,3 C 8,3 C 94 % 1015,1 hPa 0,0 l/m 0 min 2 min 68 W/m 12,9 km/h (3 Bft) 93,48 %
02.10.2018 12:20 9,6 C 8,9 C 8,3 C 94 % 1015,1 hPa 0,0 l/m 0 min 2 min 76 W/m 12,9 km/h (3 Bft) 95,74 %
02.10.2018 12:22 9,6 C 8,9 C 8,3 C 94 % 1015,1 hPa 0,0 l/m 0 min 0 min 93 W/m 12,9 km/h (3 Bft) 93,62 %
02.10.2018 12:24 9,6 C 8,9 C 8,3 C 95 % 1015,1 hPa 0,0 l/m 0 min 0 min 80 W/m 16,1 km/h (3 Bft) 95,74 %
02.10.2018 12:26 9,6 C 8,9 C 8,3 C 95 % 1015,1 hPa 0,0 l/m 0 min 0 min 66 W/m 16,1 km/h (3 Bft) 95,74 %
02.10.2018 12:28 9,6 C 8,9 C 8,9 C 95 % 1015,1 hPa 0,0 l/m 0 min 0 min 71 W/m 12,9 km/h (3 Bft) 95,74 %
02.10.2018 12:30 9,7 C 8,9 C 8,9 C 95 % 1015,1 hPa 0,0 l/m 0 min 0 min 69 W/m 16,1 km/h (3 Bft) 95,65 %
02.10.2018 12:32 9,7 C 8,9 C 8,9 C 95 % 1015,1 hPa 0,0 l/m 0 min 0 min 72 W/m 9,7 km/h (2 Bft) 93,88 %
02.10.2018 12:34 9,7 C 8,9 C 8,9 C 95 % 1015,1 hPa 0,0 l/m 0 min 0 min 81 W/m 12,9 km/h (3 Bft) 89,36 %
02.10.2018 12:36 9,7 C 8,9 C 8,9 C 95 % 1015,0 hPa 0,0 l/m 0 min 0 min 106 W/m 12,9 km/h (3 Bft) 85,11 %
02.10.2018 12:38 9,8 C 8,9 C 8,9 C 95 % 1015,0 hPa 0,0 l/m 0 min 0 min 105 W/m 22,5 km/h (4 Bft) 91,49 %
02.10.2018 12:40 9,8 C 8,9 C 8,9 C 95 % 1015,1 hPa 0,0 l/m 0 min 0 min 71 W/m 19,3 km/h (3 Bft) 91,30 %
02.10.2018 12:42 9,8 C 8,9 C 8,9 C 95 % 1015,0 hPa 0,0 l/m 0 min 0 min 76 W/m 16,1 km/h (3 Bft) 93,62 %
02.10.2018 12:44 9,8 C 8,9 C 8,9 C 95 % 1015,0 hPa 0,0 l/m 0 min 0 min 104 W/m 16,1 km/h (3 Bft) 93,62 %
02.10.2018 12:46 9,9 C 8,9 C 8,9 C 95 % 1015,1 hPa 0,0 l/m 0 min 0 min 95 W/m 9,7 km/h (2 Bft) 95,74 %
02.10.2018 12:48 9,9 C 9,4 C 9,4 C 95 % 1015,0 hPa 0,0 l/m 0 min 0 min 89 W/m 12,9 km/h (3 Bft) 91,49 %
02.10.2018 12:50 9,9 C 9,4 C 9,4 C 95 % 1014,9 hPa 0,0 l/m 0 min 0 min 95 W/m 19,3 km/h (3 Bft) 89,36 %
02.10.2018 12:52 9,9 C 9,4 C 9,4 C 95 % 1014,9 hPa 0,0 l/m 0 min 0 min 96 W/m 16,1 km/h (3 Bft) 93,48 %
02.10.2018 12:54 9,9 C 9,4 C 9,4 C 95 % 1014,9 hPa 0,0 l/m 0 min 0 min 92 W/m 22,5 km/h (4 Bft) 95,74 %
02.10.2018 12:56 10,0 C 9,4 C 9,4 C 95 % 1014,9 hPa 0,0 l/m 0 min 0 min 99 W/m 12,9 km/h (3 Bft) 97,87 %
02.10.2018 12:58 10,0 C 9,4 C 9,4 C 96 % 1014,8 hPa 0,0 l/m 0 min 0 min 100 W/m 19,3 km/h (3 Bft) 95,74 %
02.10.2018 13:00 10,1 C 9,4 C 9,4 C 96 % 1014,8 hPa 0,0 l/m 0 min 0 min 87 W/m 12,9 km/h (3 Bft) 91,49 %
02.10.2018 13:02 10,1 C 9,4 C 9,4 C 96 % 1014,9 hPa 0,0 l/m 0 min 0 min 75 W/m 9,7 km/h (2 Bft) 89,36 %
02.10.2018 13:04 10,1 C 9,4 C 9,4 C 96 % 1014,8 hPa 0,0 l/m 0 min 0 min 91 W/m 9,7 km/h (2 Bft) 95,74 %
02.10.2018 13:06 10,1 C 9,4 C 9,4 C 96 % 1014,8 hPa 0,0 l/m 0 min 0 min 74 W/m 12,9 km/h (3 Bft) 93,62 %
02.10.2018 13:08 10,1 C 9,4 C 9,4 C 96 % 1014,9 hPa 0,0 l/m 0 min 0 min 66 W/m 19,3 km/h (3 Bft) 89,36 %
02.10.2018 13:10 10,2 C 9,4 C 9,4 C 96 % 1014,8 hPa 0,0 l/m 0 min 0 min 64 W/m 6,4 km/h (2 Bft) 89,36 %
02.10.2018 13:12 10,2 C 9,4 C 9,4 C 96 % 1014,8 hPa 0,0 l/m 0 min 0 min 77 W/m 12,9 km/h (3 Bft) 93,62 %
02.10.2018 13:14 10,2 C 9,4 C 9,4 C 96 % 1014,9 hPa 0,0 l/m 0 min 0 min 71 W/m 9,7 km/h (2 Bft) 91,49 %
02.10.2018 13:16 10,2 C 9,4 C 9,4 C 96 % 1014,9 hPa 0,0 l/m 0 min 0 min 72 W/m 9,7 km/h (2 Bft) 82,61 %
02.10.2018 13:18 10,3 C 9,4 C 9,4 C 96 % 1015,0 hPa 0,0 l/m 0 min 0 min 74 W/m 16,1 km/h (3 Bft) 91,49 %
02.10.2018 13:20 10,3 C 9,4 C 9,4 C 96 % 1014,9 hPa 0,0 l/m 0 min 0 min 79 W/m 6,4 km/h (2 Bft) 82,98 %
02.10.2018 13:22 10,3 C 9,4 C 9,4 C 96 % 1015,0 hPa 0,0 l/m 0 min 0 min 72 W/m 16,1 km/h (3 Bft) 97,87 %
02.10.2018 13:24 10,3 C 9,4 C 9,4 C 96 % 1014,8 hPa 0,0 l/m 0 min 0 min 76 W/m 12,9 km/h (3 Bft) 89,36 %
02.10.2018 13:26 10,3 C 9,4 C 9,4 C 96 % 1014,9 hPa 0,0 l/m 0 min 0 min 81 W/m 16,1 km/h (3 Bft) 100,00 %
02.10.2018 13:28 10,3 C 9,4 C 9,4 C 96 % 1014,9 hPa 0,0 l/m 0 min 0 min 79 W/m 16,1 km/h (3 Bft) 100,00 %
02.10.2018 13:30 10,4 C 9,4 C 9,4 C 96 % 1014,9 hPa 0,0 l/m 0 min 2 min 86 W/m 12,9 km/h (3 Bft) 97,87 %
02.10.2018 13:32 10,4 C 9,4 C 9,4 C 96 % 1014,9 hPa 0,0 l/m 0 min 2 min 77 W/m 12,9 km/h (3 Bft) 100,00 %
02.10.2018 13:34 10,4 C 9,4 C 9,4 C 96 % 1014,9 hPa 0,0 l/m 0 min 2 min 70 W/m 12,9 km/h (3 Bft) 93,62 %
02.10.2018 13:36 10,4 C 9,4 C 9,4 C 96 % 1014,8 hPa 0,0 l/m 0 min 2 min 63 W/m 16,1 km/h (3 Bft) 100,00 %
02.10.2018 13:38 10,4 C 9,4 C 9,4 C 96 % 1014,8 hPa 0,0 l/m 0 min 2 min 56 W/m 9,7 km/h (2 Bft) 97,87 %
02.10.2018 13:40 10,4 C 10,0 C 9,4 C 96 % 1014,8 hPa 0,0 l/m 0 min 2 min 57 W/m 6,4 km/h (2 Bft) 95,65 %
02.10.2018 13:42 10,5 C 10,0 C 9,4 C 96 % 1014,8 hPa 0,0 l/m 0 min 2 min 75 W/m 9,7 km/h (2 Bft) 100,00 %
02.10.2018 13:44 10,5 C 10,0 C 9,4 C 96 % 1014,8 hPa 0,0 l/m 0 min 2 min 111 W/m 12,9 km/h (3 Bft) 100,00 %
02.10.2018 13:46 10,6 C 10,0 C 10,0 C 96 % 1014,7 hPa 0,0 l/m 0 min 2 min 146 W/m 9,7 km/h (2 Bft) 97,87 %
02.10.2018 13:48 10,6 C 10,0 C 10,0 C 96 % 1014,6 hPa 0,0 l/m 0 min 2 min 118 W/m 16,1 km/h (3 Bft) 93,62 %
02.10.2018 13:50 10,6 C 10,0 C 10,0 C 96 % 1014,6 hPa 0,0 l/m 0 min 2 min 100 W/m 6,4 km/h (2 Bft) 97,83 %
02.10.2018 13:52 10,7 C 10,0 C 10,0 C 96 % 1014,6 hPa 0,0 l/m 0 min 2 min 103 W/m 9,7 km/h (2 Bft) 95,74 %
02.10.2018 13:54 10,7 C 10,0 C 10,0 C 96 % 1014,5 hPa 0,0 l/m 0 min 2 min 97 W/m 12,9 km/h (3 Bft) 100,00 %
02.10.2018 13:56 10,7 C 10,0 C 10,0 C 96 % 1014,6 hPa 0,0 l/m 0 min 2 min 90 W/m 12,9 km/h (3 Bft) 100,00 %
02.10.2018 13:58 10,7 C 10,0 C 10,0 C 96 % 1014,4 hPa 0,0 l/m 0 min 2 min 86 W/m 12,9 km/h (3 Bft) 100,00 %
02.10.2018 14:00 10,7 C 10,0 C 10,0 C 96 % 1014,4 hPa 0,0 l/m 0 min 2 min 85 W/m 9,7 km/h (2 Bft) 97,87 %
02.10.2018 14:02 10,8 C 10,0 C 10,0 C 96 % 1014,4 hPa 0,0 l/m 0 min 2 min 83 W/m 12,9 km/h (3 Bft) 97,87 %
02.10.2018 14:04 10,8 C 10,0 C 10,0 C 96 % 1014,5 hPa 0,0 l/m 0 min 0 min 86 W/m 9,7 km/h (2 Bft) 100,00 %
02.10.2018 14:08 10,8 C 10,0 C 10,0 C 97 % 1014,5 hPa 0,0 l/m 0 min 0 min 98 W/m 9,7 km/h (2 Bft) 97,85 %
02.10.2018 14:10 10,8 C 10,0 C 10,0 C 97 % 1014,5 hPa 0,0 l/m 0 min 0 min 99 W/m 22,5 km/h (4 Bft) 95,74 %
02.10.2018 14:12 10,9 C 10,6 C 10,0 C 96 % 1014,6 hPa 0,0 l/m 0 min 0 min 114 W/m 12,9 km/h (3 Bft) 97,87 %
02.10.2018 14:14 10,9 C 10,6 C 10,0 C 96 % 1014,4 hPa 0,0 l/m 0 min 0 min 100 W/m 6,4 km/h (2 Bft) 97,87 %
02.10.2018 14:16 10,9 C 10,6 C 10,0 C 96 % 1014,5 hPa 0,0 l/m 0 min 0 min 86 W/m 12,9 km/h (3 Bft) 95,74 %
02.10.2018 14:18 10,9 C 10,6 C 10,0 C 96 % 1014,4 hPa 0,0 l/m 0 min 0 min 91 W/m 6,4 km/h (2 Bft) 97,83 %
02.10.2018 14:20 11,0 C 10,6 C 10,0 C 97 % 1014,4 hPa 0,0 l/m 0 min 2 min 90 W/m 9,7 km/h (2 Bft) 97,87 %
02.10.2018 14:22 11,0 C 10,6 C 10,0 C 97 % 1014,4 hPa 0,0 l/m 0 min 2 min 113 W/m 9,7 km/h (2 Bft) 97,87 %
02.10.2018 14:24 11,0 C 10,6 C 10,0 C 97 % 1014,4 hPa 0,0 l/m 0 min 2 min 106 W/m 29,0 km/h (5 Bft) 95,74 %
02.10.2018 14:26 11,1 C 10,6 C 10,0 C 97 % 1014,3 hPa 0,0 l/m 0 min 2 min 119 W/m 16,1 km/h (3 Bft) 97,87 %
02.10.2018 14:28 11,1 C 10,6 C 10,0 C 97 % 1014,3 hPa 0,0 l/m 0 min 2 min 106 W/m 9,7 km/h (2 Bft) 91,49 %
02.10.2018 14:30 11,1 C 10,6 C 10,0 C 97 % 1014,3 hPa 0,0 l/m 0 min 2 min 86 W/m 9,7 km/h (2 Bft) 97,83 %
02.10.2018 14:32 11,2 C 10,6 C 10,0 C 97 % 1014,2 hPa 0,0 l/m 0 min 2 min 86 W/m 12,9 km/h (3 Bft) 97,87 %
02.10.2018 14:34 11,2 C 10,6 C 10,0 C 97 % 1014,3 hPa 0,0 l/m 0 min 2 min 81 W/m 6,4 km/h (2 Bft) 95,74 %
02.10.2018 14:36 11,2 C 10,6 C 10,0 C 97 % 1014,3 hPa 0,0 l/m 0 min 2 min 70 W/m 9,7 km/h (2 Bft) 95,83 %
02.10.2018 14:38 11,2 C 10,6 C 10,0 C 97 % 1014,3 hPa 0,0 l/m 0 min 0 min 66 W/m 12,9 km/h (3 Bft) 97,83 %
02.10.2018 14:40 11,2 C 10,6 C 10,0 C 97 % 1014,3 hPa 0,0 l/m 0 min 0 min 74 W/m 6,4 km/h (2 Bft) 97,87 %
02.10.2018 14:42 11,2 C 10,6 C 10,0 C 97 % 1014,3 hPa 0,0 l/m 0 min 0 min 88 W/m 9,7 km/h (2 Bft) 95,74 %
02.10.2018 14:44 11,2 C 10,6 C 10,6 C 97 % 1014,4 hPa 0,0 l/m 0 min 0 min 76 W/m 9,7 km/h (2 Bft) 97,87 %
02.10.2018 14:46 11,3 C 10,6 C 10,6 C 97 % 1014,3 hPa 0,0 l/m 0 min 0 min 59 W/m 9,7 km/h (2 Bft) 95,74 %
02.10.2018 14:48 11,3 C 10,6 C 10,6 C 97 % 1014,3 hPa 0,0 l/m 0 min 0 min 72 W/m 9,7 km/h (2 Bft) 95,65 %
02.10.2018 14:50 11,3 C 10,6 C 10,6 C 97 % 1014,2 hPa 0,0 l/m 0 min 0 min 74 W/m 12,9 km/h (3 Bft) 95,74 %
02.10.2018 14:52 11,3 C 10,6 C 10,6 C 97 % 1014,3 hPa 0,0 l/m 0 min 0 min 92 W/m 16,1 km/h (3 Bft) 93,62 %
02.10.2018 14:54 11,3 C 10,6 C 10,6 C 97 % 1014,4 hPa 0,0 l/m 0 min 0 min 88 W/m 32,2 km/h (5 Bft) 93,62 %
02.10.2018 14:56 11,4 C 10,6 C 10,6 C 97 % 1014,4 hPa 0,0 l/m 0 min 0 min 79 W/m 9,7 km/h (2 Bft) 93,62 %
02.10.2018 14:58 11,4 C 10,6 C 10,6 C 97 % 1014,3 hPa 0,0 l/m 0 min 0 min 58 W/m 9,7 km/h (2 Bft) 95,74 %
02.10.2018 15:00 11,4 C 10,6 C 10,6 C 97 % 1014,4 hPa 0,0 l/m 0 min 0 min 55 W/m 16,1 km/h (3 Bft) 95,74 %
02.10.2018 15:02 11,4 C 10,6 C 10,6 C 97 % 1014,4 hPa 0,0 l/m 0 min 0 min 62 W/m 16,1 km/h (3 Bft) 93,48 %
02.10.2018 15:04 11,5 C 10,6 C 10,6 C 97 % 1014,3 hPa 0,0 l/m 0 min 0 min 68 W/m 12,9 km/h (3 Bft) 97,87 %
02.10.2018 15:06 11,5 C 10,6 C 10,6 C 97 % 1014,3 hPa 0,0 l/m 0 min 0 min 82 W/m 16,1 km/h (3 Bft) 97,87 %
02.10.2018 15:08 11,6 C 11,1 C 10,6 C 97 % 1014,3 hPa 0,0 l/m 0 min 0 min 115 W/m 9,7 km/h (2 Bft) 93,62 %
02.10.2018 15:10 11,6 C 11,1 C 11,1 C 97 % 1014,3 hPa 0,0 l/m 0 min 0 min 135 W/m 6,4 km/h (2 Bft) 97,87 %
02.10.2018 15:12 11,6 C 11,1 C 11,1 C 97 % 1014,4 hPa 0,0 l/m 0 min 0 min 127 W/m 16,1 km/h (3 Bft) 97,83 %
02.10.2018 15:14 11,7 C 11,1 C 11,1 C 97 % 1014,5 hPa 0,0 l/m 0 min 0 min 98 W/m 9,7 km/h (2 Bft) 97,87 %
02.10.2018 15:16 11,7 C 11,1 C 11,1 C 97 % 1014,4 hPa 0,0 l/m 0 min 0 min 93 W/m 16,1 km/h (3 Bft) 97,87 %
02.10.2018 15:18 11,7 C 11,1 C 11,1 C 97 % 1014,5 hPa 0,0 l/m 0 min 0 min 84 W/m 16,1 km/h (3 Bft) 97,87 %
02.10.2018 15:20 11,7 C 11,1 C 11,1 C 97 % 1014,4 hPa 0,0 l/m 0 min 0 min 74 W/m 9,7 km/h (2 Bft) 97,87 %
02.10.2018 15:22 11,7 C 11,1 C 11,1 C 97 % 1014,5 hPa 0,0 l/m 0 min 0 min 68 W/m 12,9 km/h (3 Bft) 95,74 %
02.10.2018 15:24 11,8 C 11,1 C 11,1 C 97 % 1014,6 hPa 0,0 l/m 0 min 0 min 62 W/m 16,1 km/h (3 Bft) 95,65 %
02.10.2018 15:26 11,8 C 11,1 C 11,1 C 97 % 1014,7 hPa 0,0 l/m 0 min 0 min 64 W/m 19,3 km/h (3 Bft) 93,62 %
02.10.2018 15:28 11,8 C 11,1 C 11,1 C 97 % 1014,5 hPa 0,0 l/m 0 min 0 min 49 W/m 12,9 km/h (3 Bft) 97,87 %
02.10.2018 15:30 11,8 C 11,1 C 11,1 C 97 % 1014,5 hPa 0,0 l/m 0 min 0 min 56 W/m 12,9 km/h (3 Bft) 95,74 %
02.10.2018 15:32 11,8 C 11,1 C 11,1 C 97 % 1014,6 hPa 0,0 l/m 0 min 0 min 56 W/m 19,3 km/h (3 Bft) 95,74 %
02.10.2018 15:34 11,8 C 11,1 C 11,1 C 97 % 1014,5 hPa 0,0 l/m 0 min 0 min 49 W/m 9,7 km/h (2 Bft) 100,00 %
02.10.2018 15:36 11,8 C 11,1 C 11,1 C 97 % 1014,7 hPa 0,0 l/m 0 min 0 min 48 W/m 16,1 km/h (3 Bft) 100,00 %
02.10.2018 15:38 11,8 C 11,1 C 11,1 C 97 % 1014,5 hPa 0,0 l/m 0 min 0 min 83 W/m 9,7 km/h (2 Bft) 97,87 %
02.10.2018 15:40 11,9 C 11,1 C 11,1 C 97 % 1014,6 hPa 0,0 l/m 0 min 0 min 91 W/m 9,7 km/h (2 Bft) 100,00 %
02.10.2018 15:42 11,9 C 11,1 C 11,1 C 97 % 1014,6 hPa 0,0 l/m 0 min 0 min 106 W/m 19,3 km/h (3 Bft) 95,74 %
02.10.2018 15:44 11,9 C 11,7 C 11,1 C 97 % 1014,5 hPa 0,0 l/m 0 min 0 min 107 W/m 6,4 km/h (2 Bft) 100,00 %
02.10.2018 15:46 11,9 C 11,7 C 11,1 C 97 % 1014,5 hPa 0,0 l/m 0 min 0 min 91 W/m 12,9 km/h (3 Bft) 97,87 %
02.10.2018 15:48 12,0 C 11,7 C 11,1 C 97 % 1014,6 hPa 0,0 l/m 0 min 0 min 62 W/m 9,7 km/h (2 Bft) 97,87 %
02.10.2018 15:50 12,0 C 11,7 C 11,1 C 97 % 1014,6 hPa 0,0 l/m 0 min 0 min 74 W/m 6,4 km/h (2 Bft) 97,87 %
02.10.2018 15:52 12,0 C 11,7 C 11,1 C 97 % 1014,6 hPa 0,0 l/m 0 min 0 min 74 W/m 9,7 km/h (2 Bft) 97,87 %
02.10.2018 15:54 12,1 C 11,7 C 11,1 C 97 % 1014,7 hPa 0,0 l/m 0 min 0 min 69 W/m 9,7 km/h (2 Bft) 97,87 %
02.10.2018 15:56 12,1 C 11,7 C 11,1 C 97 % 1014,6 hPa 0,0 l/m 0 min 0 min 96 W/m 6,4 km/h (2 Bft) 95,74 %
02.10.2018 15:58 12,1 C 11,7 C 11,1 C 97 % 1014,6 hPa 0,0 l/m 0 min 0 min 176 W/m 12,9 km/h (3 Bft) 97,87 %
02.10.2018 16:00 12,2 C 12,2 C 11,7 C 97 % 1014,6 hPa 0,0 l/m 0 min 0 min 149 W/m 6,4 km/h (2 Bft) 97,87 %
02.10.2018 16:02 12,2 C 12,2 C 11,7 C 97 % 1014,8 hPa 0,0 l/m 0 min 0 min 151 W/m 9,7 km/h (2 Bft) 97,87 %
02.10.2018 16:04 12,3 C 12,2 C 11,7 C 97 % 1014,8 hPa 0,0 l/m 0 min 0 min 169 W/m 16,1 km/h (3 Bft) 95,65 %
02.10.2018 16:06 12,3 C 12,2 C 11,7 C 97 % 1014,8 hPa 0,0 l/m 0 min 0 min 170 W/m 12,9 km/h (3 Bft) 95,74 %
02.10.2018 16:08 12,4 C 12,2 C 11,7 C 97 % 1014,7 hPa 0,0 l/m 0 min 0 min 182 W/m 12,9 km/h (3 Bft) 95,74 %
02.10.2018 16:10 12,4 C 12,2 C 11,7 C 97 % 1014,8 hPa 0,0 l/m 0 min 0 min 179 W/m 12,9 km/h (3 Bft) 97,87 %
02.10.2018 16:12 12,4 C 12,2 C 11,7 C 97 % 1014,7 hPa 0,0 l/m 0 min 0 min 182 W/m 16,1 km/h (3 Bft) 95,74 %
02.10.2018 16:14 12,5 C 12,2 C 11,7 C 97 % 1014,7 hPa 0,0 l/m 0 min 0 min 198 W/m 9,7 km/h (2 Bft) 97,87 %
02.10.2018 16:16 12,6 C 12,2 C 11,7 C 97 % 1014,5 hPa 0,0 l/m 0 min 0 min 180 W/m 9,7 km/h (2 Bft) 95,65 %
02.10.2018 16:18 12,6 C 12,2 C 11,7 C 97 % 1014,6 hPa 0,0 l/m 0 min 0 min 165 W/m 9,7 km/h (2 Bft) 97,87 %
02.10.2018 16:20 12,7 C 12,8 C 11,7 C 97 % 1014,5 hPa 0,0 l/m 2 min 0 min 214 W/m 16,1 km/h (3 Bft) 95,74 %
02.10.2018 16:22 12,7 C 12,8 C 11,7 C 97 % 1014,4 hPa 0,0 l/m 2 min 0 min 217 W/m 12,9 km/h (3 Bft) 97,87 %
02.10.2018 16:24 12,7 C 12,8 C 12,2 C 97 % 1014,4 hPa 0,0 l/m 2 min 0 min 217 W/m 9,7 km/h (2 Bft) 97,87 %
02.10.2018 16:26 12,8 C 12,8 C 12,2 C 97 % 1014,4 hPa 0,0 l/m 2 min 0 min 262 W/m 9,7 km/h (2 Bft) 97,87 %
02.10.2018 16:28 12,8 C 13,3 C 12,2 C 97 % 1014,4 hPa 0,0 l/m 2 min 0 min 270 W/m 9,7 km/h (2 Bft) 97,83 %
02.10.2018 16:30 12,9 C 13,9 C 12,2 C 97 % 1014,4 hPa 0,0 l/m 2 min 0 min 321 W/m 6,4 km/h (2 Bft) 97,87 %
02.10.2018 16:32 12,9 C 13,9 C 12,2 C 97 % 1014,4 hPa 0,0 l/m 2 min 0 min 440 W/m 16,1 km/h (3 Bft) 97,87 %
02.10.2018 16:34 13,1 C 13,9 C 12,2 C 97 % 1014,3 hPa 0,0 l/m 2 min 0 min 257 W/m 16,1 km/h (3 Bft) 97,87 %
02.10.2018 16:38 13,1 C 13,9 C 12,2 C 97 % 1014,4 hPa 0,0 l/m 4 min 0 min 222 W/m 19,3 km/h (3 Bft) 98,94 %
02.10.2018 16:40 13,2 C 13,9 C 12,2 C 97 % 1014,5 hPa 0,0 l/m 2 min 0 min 209 W/m 12,9 km/h (3 Bft) 100,00 %
02.10.2018 16:42 13,2 C 13,9 C 12,2 C 97 % 1014,4 hPa 0,0 l/m 2 min 0 min 223 W/m 9,7 km/h (2 Bft) 97,87 %
02.10.2018 16:44 13,3 C 13,9 C 12,8 C 97 % 1014,4 hPa 0,0 l/m 2 min 0 min 256 W/m 6,4 km/h (2 Bft) 97,87 %
02.10.2018 16:46 13,3 C 14,4 C 12,2 C 97 % 1014,4 hPa 0,0 l/m 2 min 0 min 224 W/m 9,7 km/h (2 Bft) 100,00 %
02.10.2018 16:48 13,3 C 14,4 C 12,2 C 97 % 1014,5 hPa 0,0 l/m 2 min 0 min 305 W/m 16,1 km/h (3 Bft) 100,00 %
02.10.2018 16:50 13,4 C 15,0 C 12,8 C 96 % 1014,4 hPa 0,0 l/m 2 min 0 min 364 W/m 12,9 km/h (3 Bft) 100,00 %
02.10.2018 16:52 13,4 C 14,4 C 12,8 C 96 % 1014,4 hPa 0,0 l/m 2 min 0 min 336 W/m 12,9 km/h (3 Bft) 97,87 %
02.10.2018 16:54 13,5 C 15,0 C 12,8 C 96 % 1014,5 hPa 0,0 l/m 2 min 0 min 373 W/m 12,9 km/h (3 Bft) 97,87 %
02.10.2018 16:56 13,5 C 14,4 C 12,8 C 96 % 1014,5 hPa 0,0 l/m 2 min 0 min 324 W/m 9,7 km/h (2 Bft) 100,00 %
02.10.2018 16:58 13,6 C 14,4 C 12,8 C 96 % 1014,5 hPa 0,0 l/m 2 min 0 min 190 W/m 9,7 km/h (2 Bft) 100,00 %
02.10.2018 17:00 13,6 C 14,4 C 12,8 C 96 % 1014,5 hPa 0,0 l/m 2 min 0 min 173 W/m 19,3 km/h (3 Bft) 100,00 %
02.10.2018 17:02 13,7 C 14,4 C 12,8 C 96 % 1014,5 hPa 0,0 l/m 2 min 0 min 307 W/m 9,7 km/h (2 Bft) 97,83 %
02.10.2018 17:04 13,7 C 14,4 C 12,8 C 96 % 1014,4 hPa 0,0 l/m 2 min 0 min 258 W/m 6,4 km/h (2 Bft) 95,74 %
02.10.2018 17:08 13,8 C 14,4 C 12,8 C 96 % 1014,4 hPa 0,0 l/m 4 min 0 min 160 W/m 16,1 km/h (3 Bft) 98,94 %
02.10.2018 17:10 13,8 C 13,9 C 12,8 C 96 % 1014,4 hPa 0,0 l/m 0 min 0 min 94 W/m 16,1 km/h (3 Bft) 100,00 %
02.10.2018 17:12 13,8 C 13,9 C 12,8 C 96 % 1014,5 hPa 0,0 l/m 0 min 0 min 113 W/m 16,1 km/h (3 Bft) 100,00 %
02.10.2018 17:14 13,9 C 14,4 C 12,8 C 95 % 1014,4 hPa 0,0 l/m 2 min 0 min 265 W/m 16,1 km/h (3 Bft) 95,65 %
02.10.2018 17:16 13,9 C 13,9 C 12,8 C 95 % 1014,4 hPa 0,0 l/m 2 min 0 min 230 W/m 12,9 km/h (3 Bft) 95,74 %
02.10.2018 17:18 13,9 C 13,9 C 12,8 C 95 % 1014,4 hPa 0,0 l/m 0 min 0 min 92 W/m 12,9 km/h (3 Bft) 97,87 %
02.10.2018 17:20 14,0 C 13,9 C 12,8 C 95 % 1014,4 hPa 0,0 l/m 0 min 0 min 112 W/m 19,3 km/h (3 Bft) 97,87 %
02.10.2018 17:22 14,0 C 13,9 C 12,8 C 95 % 1014,4 hPa 0,0 l/m 0 min 0 min 79 W/m 9,7 km/h (2 Bft) 97,87 %
02.10.2018 17:24 14,0 C 13,9 C 12,8 C 95 % 1014,6 hPa 0,0 l/m 0 min 0 min 90 W/m 9,7 km/h (2 Bft) 95,74 %
02.10.2018 17:26 14,1 C 13,9 C 12,8 C 95 % 1014,5 hPa 0,0 l/m 2 min 0 min 169 W/m 6,4 km/h (2 Bft) 91,30 %
02.10.2018 17:28 14,1 C 14,4 C 12,8 C 94 % 1014,5 hPa 0,0 l/m 2 min 0 min 282 W/m 6,4 km/h (2 Bft) 95,74 %
02.10.2018 17:30 14,2 C 14,4 C 12,8 C 94 % 1014,5 hPa 0,0 l/m 2 min 0 min 127 W/m 12,9 km/h (3 Bft) 95,74 %
02.10.2018 17:32 14,2 C 13,9 C 12,8 C 94 % 1014,6 hPa 0,0 l/m 0 min 0 min 85 W/m 12,9 km/h (3 Bft) 95,45 %
02.10.2018 17:34 14,2 C 13,9 C 12,8 C 94 % 1014,5 hPa 0,0 l/m 0 min 0 min 84 W/m 16,1 km/h (3 Bft) 93,62 %
02.10.2018 17:36 14,2 C 13,9 C 12,8 C 94 % 1014,5 hPa 0,0 l/m 0 min 0 min 88 W/m 9,7 km/h (2 Bft) 95,74 %
02.10.2018 17:38 14,2 C 13,9 C 12,8 C 94 % 1014,4 hPa 0,0 l/m 2 min 0 min 148 W/m 12,9 km/h (3 Bft) 95,74 %
02.10.2018 17:40 14,2 C 14,4 C 13,3 C 94 % 1014,4 hPa 0,0 l/m 2 min 0 min 176 W/m 12,9 km/h (3 Bft) 95,74 %
02.10.2018 17:42 14,2 C 14,4 C 13,3 C 93 % 1014,5 hPa 0,0 l/m 2 min 0 min 153 W/m 9,7 km/h (2 Bft) 95,74 %
02.10.2018 17:44 14,2 C 14,4 C 13,3 C 93 % 1014,5 hPa 0,0 l/m 2 min 0 min 139 W/m 9,7 km/h (2 Bft) 95,65 %
02.10.2018 17:46 14,2 C 14,4 C 13,3 C 93 % 1014,5 hPa 0,0 l/m 2 min 0 min 140 W/m 12,9 km/h (3 Bft) 93,62 %
02.10.2018 17:48 14,3 C 14,4 C 13,3 C 93 % 1014,6 hPa 0,0 l/m 2 min 0 min 147 W/m 16,1 km/h (3 Bft) 95,74 %
02.10.2018 17:50 14,4 C 14,4 C 13,3 C 93 % 1014,5 hPa 0,0 l/m 2 min 0 min 171 W/m 12,9 km/h (3 Bft) 93,62 %
02.10.2018 17:52 14,4 C 15,0 C 13,3 C 93 % 1014,5 hPa 0,0 l/m 2 min 0 min 158 W/m 6,4 km/h (2 Bft) 95,74 %
02.10.2018 17:54 14,5 C 15,0 C 13,3 C 93 % 1014,5 hPa 0,0 l/m 2 min 0 min 131 W/m 9,7 km/h (2 Bft) 93,62 %
02.10.2018 17:56 14,5 C 15,0 C 13,3 C 93 % 1014,4 hPa 0,0 l/m 2 min 0 min 111 W/m 9,7 km/h (2 Bft) 95,65 %
02.10.2018 17:58 14,6 C 15,0 C 13,3 C 93 % 1014,4 hPa 0,0 l/m 2 min 0 min 113 W/m 16,1 km/h (3 Bft) 95,74 %
02.10.2018 18:00 14,6 C 14,4 C 13,3 C 93 % 1014,5 hPa 0,0 l/m 2 min 0 min 112 W/m 16,1 km/h (3 Bft) 97,87 %
02.10.2018 18:02 14,7 C 15,0 C 13,3 C 93 % 1014,5 hPa 0,0 l/m 2 min 0 min 107 W/m 9,7 km/h (2 Bft) 97,92 %
02.10.2018 18:04 14,7 C 14,4 C 13,3 C 92 % 1014,5 hPa 0,0 l/m 2 min 0 min 82 W/m 9,7 km/h (2 Bft) 95,74 %
02.10.2018 18:06 14,7 C 14,4 C 13,3 C 92 % 1014,3 hPa 0,0 l/m 0 min 0 min 74 W/m 16,1 km/h (3 Bft) 97,87 %
02.10.2018 18:08 14,7 C 14,4 C 13,3 C 92 % 1014,4 hPa 0,0 l/m 2 min 0 min 86 W/m 9,7 km/h (2 Bft) 97,83 %
02.10.2018 18:10 14,7 C 14,4 C 13,3 C 92 % 1014,4 hPa 0,0 l/m 2 min 0 min 93 W/m 12,9 km/h (3 Bft) 95,74 %
02.10.2018 18:12 14,8 C 14,4 C 13,3 C 91 % 1014,5 hPa 0,0 l/m 2 min 0 min 82 W/m 12,9 km/h (3 Bft) 95,74 %
02.10.2018 18:14 14,8 C 14,4 C 13,3 C 91 % 1014,7 hPa 0,0 l/m 0 min 0 min 60 W/m 12,9 km/h (3 Bft) 95,74 %
02.10.2018 18:16 14,8 C 14,4 C 13,3 C 91 % 1014,7 hPa 0,0 l/m 0 min 0 min 48 W/m 19,3 km/h (3 Bft) 97,87 %
02.10.2018 18:18 14,8 C 14,4 C 13,3 C 91 % 1014,8 hPa 0,0 l/m 0 min 0 min 46 W/m 19,3 km/h (3 Bft) 97,83 %
02.10.2018 18:20 14,8 C 14,4 C 13,3 C 91 % 1014,7 hPa 0,0 l/m 0 min 0 min 45 W/m 19,3 km/h (3 Bft) 97,87 %
02.10.2018 18:22 14,8 C 14,4 C 13,3 C 90 % 1014,8 hPa 0,0 l/m 0 min 0 min 48 W/m 9,7 km/h (2 Bft) 100,00 %
02.10.2018 18:24 14,8 C 14,4 C 13,3 C 90 % 1014,9 hPa 0,0 l/m 0 min 0 min 45 W/m 6,4 km/h (2 Bft) 100,00 %
02.10.2018 18:26 14,7 C 13,9 C 13,3 C 90 % 1014,9 hPa 0,0 l/m 0 min 0 min 40 W/m 9,7 km/h (2 Bft) 100,00 %
02.10.2018 18:28 14,7 C 14,4 C 13,3 C 90 % 1014,9 hPa 0,0 l/m 0 min 0 min 37 W/m 6,4 km/h (2 Bft) 100,00 %
02.10.2018 18:30 14,7 C 13,9 C 13,3 C 90 % 1014,9 hPa 0,0 l/m 0 min 0 min 39 W/m 16,1 km/h (3 Bft) 100,00 %
02.10.2018 18:32 14,7 C 13,9 C 13,3 C 89 % 1014,9 hPa 0,0 l/m 0 min 0 min 42 W/m 16,1 km/h (3 Bft) 100,00 %
02.10.2018 18:34 14,7 C 14,4 C 13,3 C 89 % 1014,9 hPa 0,0 l/m 0 min 0 min 40 W/m 9,7 km/h (2 Bft) 100,00 %
02.10.2018 18:36 14,7 C 13,9 C 13,3 C 89 % 1015,0 hPa 0,0 l/m 2 min 0 min 39 W/m 9,7 km/h (2 Bft) 97,83 %
02.10.2018 18:38 14,7 C 13,9 C 13,3 C 89 % 1015,0 hPa 0,0 l/m 2 min 0 min 36 W/m 9,7 km/h (2 Bft) 100,00 %
02.10.2018 18:40 14,7 C 13,9 C 13,3 C 89 % 1015,0 hPa 0,0 l/m 0 min 0 min 30 W/m 6,4 km/h (2 Bft) 100,00 %
02.10.2018 18:42 14,7 C 13,9 C 13,3 C 89 % 1015,1 hPa 0,0 l/m 2 min 0 min 31 W/m 6,4 km/h (2 Bft) 100,00 %
02.10.2018 18:44 14,6 C 13,9 C 13,3 C 89 % 1015,2 hPa 0,0 l/m 2 min 0 min 34 W/m 16,1 km/h (3 Bft) 100,00 %
02.10.2018 18:46 14,6 C 13,9 C 12,8 C 89 % 1015,2 hPa 0,0 l/m 2 min 0 min 28 W/m 9,7 km/h (2 Bft) 97,87 %
02.10.2018 18:48 14,6 C 13,9 C 12,8 C 89 % 1015,2 hPa 0,0 l/m 0 min 0 min 19 W/m 6,4 km/h (2 Bft) 97,83 %
02.10.2018 18:50 14,6 C 13,9 C 12,8 C 89 % 1015,3 hPa 0,0 l/m 0 min 0 min 16 W/m 6,4 km/h (2 Bft) 97,87 %
02.10.2018 18:52 14,6 C 13,9 C 12,8 C 89 % 1015,3 hPa 0,0 l/m 0 min 0 min 18 W/m 6,4 km/h (2 Bft) 95,74 %
02.10.2018 18:54 14,6 C 13,9 C 12,8 C 89 % 1015,4 hPa 0,0 l/m 2 min 0 min 26 W/m 0,0 km/h (0 Bft) 97,87 %
02.10.2018 18:56 14,6 C 13,3 C 12,8 C 89 % 1015,4 hPa 0,0 l/m 2 min 0 min 28 W/m 9,7 km/h (2 Bft) 95,74 %
02.10.2018 18:58 14,6 C 13,3 C 12,8 C 89 % 1015,4 hPa 0,0 l/m 2 min 0 min 21 W/m 6,4 km/h (2 Bft) 97,83 %
02.10.2018 19:00 14,5 C 13,3 C 12,8 C 89 % 1015,4 hPa 0,0 l/m 0 min 0 min 13 W/m 6,4 km/h (2 Bft) 95,74 %
02.10.2018 19:02 14,5 C 13,3 C 12,8 C 89 % 1015,4 hPa 0,0 l/m 0 min 0 min 8 W/m 6,4 km/h (2 Bft) 95,74 %
02.10.2018 19:04 14,4 C 13,3 C 12,8 C 89 % 1015,4 hPa 0,0 l/m 0 min 0 min 6 W/m 3,2 km/h (1 Bft) 97,87 %
02.10.2018 19:08 14,4 C 13,3 C 12,8 C 89 % 1015,4 hPa 0,0 l/m 0 min 0 min 5 W/m 6,4 km/h (2 Bft) 97,62 %
02.10.2018 19:10 14,3 C 13,3 C 12,8 C 89 % 1015,6 hPa 0,0 l/m 0 min 0 min 4 W/m 16,1 km/h (3 Bft) 97,87 %
02.10.2018 19:12 14,2 C 13,3 C 12,8 C 88 % 1015,6 hPa 0,0 l/m 0 min 0 min 0 W/m 9,7 km/h (2 Bft) 97,87 %
02.10.2018 19:14 14,2 C 13,3 C 12,8 C 88 % 1015,7 hPa 0,0 l/m 0 min 0 min 0 W/m 9,7 km/h (2 Bft) 97,87 %
02.10.2018 19:16 14,2 C 13,3 C 12,8 C 87 % 1015,7 hPa 0,0 l/m 0 min 0 min 0 W/m 12,9 km/h (3 Bft) 97,87 %
02.10.2018 19:18 14,1 C 13,3 C 12,8 C 86 % 1015,7 hPa 0,0 l/m 0 min 0 min 0 W/m 3,2 km/h (1 Bft) 95,74 %
02.10.2018 19:20 14,0 C 12,8 C 12,2 C 86 % 1015,8 hPa 0,0 l/m 0 min 0 min 0 W/m 6,4 km/h (2 Bft) 97,83 %
02.10.2018 19:22 13,9 C 12,8 C 12,2 C 85 % 1015,8 hPa 0,0 l/m 0 min 0 min 0 W/m 9,7 km/h (2 Bft) 97,87 %
02.10.2018 19:24 13,9 C 12,8 C 12,2 C 84 % 1015,8 hPa 0,0 l/m 0 min 0 min 0 W/m 6,4 km/h (2 Bft) 97,87 %
02.10.2018 19:26 13,8 C 12,8 C 12,2 C 84 % 1015,7 hPa 0,0 l/m 0 min 0 min 0 W/m 3,2 km/h (1 Bft) 97,87 %
02.10.2018 19:28 13,8 C 12,2 C 12,2 C 84 % 1015,8 hPa 0,0 l/m 0 min 0 min 0 W/m 3,2 km/h (1 Bft) 97,87 %
02.10.2018 19:30 13,7 C 12,2 C 11,7 C 84 % 1015,9 hPa 0,0 l/m 0 min 0 min 0 W/m 3,2 km/h (1 Bft) 97,87 %
02.10.2018 19:32 13,7 C 12,2 C 11,7 C 84 % 1015,9 hPa 0,0 l/m 0 min 0 min 0 W/m 3,2 km/h (1 Bft) 95,92 %
02.10.2018 19:34 13,7 C 12,2 C 11,7 C 84 % 1015,9 hPa 0,0 l/m 0 min 0 min 0 W/m 6,4 km/h (2 Bft) 97,87 %
02.10.2018 19:36 13,6 C 12,2 C 11,7 C 84 % 1015,9 hPa 0,0 l/m 0 min 0 min 0 W/m 3,2 km/h (1 Bft) 97,87 %
02.10.2018 19:38 13,6 C 12,2 C 11,7 C 84 % 1016,0 hPa 0,0 l/m 0 min 0 min 0 W/m 0,0 km/h (0 Bft) 97,87 %
02.10.2018 19:40 13,6 C 12,2 C 11,7 C 84 % 1016,0 hPa 0,0 l/m 0 min 0 min 0 W/m 3,2 km/h (1 Bft) 95,74 %
02.10.2018 19:42 13,5 C 12,2 C 11,1 C 84 % 1016,0 hPa 0,0 l/m 0 min 0 min 0 W/m 0,0 km/h (0 Bft) 95,65 %
02.10.2018 19:44 13,5 C 12,2 C 11,1 C 84 % 1016,0 hPa 0,0 l/m 0 min 0 min 0 W/m 3,2 km/h (1 Bft) 95,74 %
02.10.2018 19:46 13,4 C 11,7 C 11,1 C 84 % 1016,0 hPa 0,0 l/m 0 min 0 min 0 W/m 0,0 km/h (0 Bft) 97,87 %
02.10.2018 19:48 13,4 C 11,7 C 11,1 C 84 % 1016,0 hPa 0,0 l/m 0 min 0 min 0 W/m 3,2 km/h (1 Bft) 95,74 %
02.10.2018 19:50 13,3 C 11,7 C 11,1 C 84 % 1016,1 hPa 0,0 l/m 0 min 0 min 0 W/m 3,2 km/h (1 Bft) 97,87 %
02.10.2018 19:52 13,3 C 11,7 C 10,6 C 84 % 1016,0 hPa 0,0 l/m 0 min 0 min 0 W/m 3,2 km/h (1 Bft) 97,87 %
02.10.2018 19:54 13,3 C 11,7 C 10,6 C 84 % 1016,1 hPa 0,0 l/m 0 min 0 min 0 W/m 0,0 km/h (0 Bft) 97,83 %
02.10.2018 19:56 13,2 C 11,1 C 10,6 C 84 % 1016,1 hPa 0,0 l/m 0 min 0 min 0 W/m 3,2 km/h (1 Bft) 97,87 %
02.10.2018 19:58 13,2 C 11,1 C 10,6 C 84 % 1016,1 hPa 0,0 l/m 0 min 0 min 0 W/m 3,2 km/h (1 Bft) 95,74 %
02.10.2018 20:00 13,1 C 11,1 C 10,6 C 84 % 1016,1 hPa 0,0 l/m 0 min 0 min 0 W/m 3,2 km/h (1 Bft) 95,74 %
02.10.2018 20:02 13,1 C 11,1 C 10,6 C 84 % 1016,2 hPa 0,0 l/m 0 min 0 min 0 W/m 3,2 km/h (1 Bft) 95,74 %
02.10.2018 20:04 13,0 C 11,1 C 10,6 C 84 % 1016,2 hPa 0,0 l/m 0 min 0 min 0 W/m 3,2 km/h (1 Bft) 97,87 %
02.10.2018 20:06 12,9 C 11,1 C 10,6 C 84 % 1016,2 hPa 0,0 l/m 0 min 0 min 0 W/m 3,2 km/h (1 Bft) 93,62 %
02.10.2018 20:08 12,9 C 11,7 C 10,6 C 84 % 1016,2 hPa 0,0 l/m 0 min 0 min 0 W/m 0,0 km/h (0 Bft) 93,62 %
02.10.2018 20:10 12,8 C 11,1 C 10,6 C 85 % 1016,3 hPa 0,0 l/m 0 min 0 min 0 W/m 3,2 km/h (1 Bft) 93,62 %
02.10.2018 20:12 12,8 C 11,1 C 10,6 C 85 % 1016,2 hPa 0,0 l/m 0 min 0 min 0 W/m 3,2 km/h (1 Bft) 95,65 %
02.10.2018 20:14 12,7 C 11,1 C 10,6 C 85 % 1016,2 hPa 0,0 l/m 0 min 0 min 0 W/m 3,2 km/h (1 Bft) 97,87 %
02.10.2018 20:16 12,7 C 11,1 C 10,6 C 85 % 1016,2 hPa 0,0 l/m 0 min 0 min 0 W/m 0,0 km/h (0 Bft) 93,62 %
02.10.2018 20:18 12,7 C 11,1 C 10,6 C 85 % 1016,2 hPa 0,0 l/m 0 min 0 min 0 W/m 6,4 km/h (2 Bft) 95,74 %
02.10.2018 20:20 12,6 C 11,1 C 10,6 C 85 % 1016,2 hPa 0,0 l/m 0 min 0 min 0 W/m 0,0 km/h (0 Bft) 95,74 %
02.10.2018 20:22 12,6 C 11,1 C 10,6 C 85 % 1016,2 hPa 0,0 l/m 0 min 0 min 0 W/m 0,0 km/h (0 Bft) 93,48 %
02.10.2018 20:24 12,6 C 11,1 C 10,6 C 86 % 1016,3 hPa 0,0 l/m 0 min 0 min 0 W/m 3,2 km/h (1 Bft) 95,74 %
02.10.2018 20:26 12,5 C 11,7 C 10,6 C 86 % 1016,3 hPa 0,0 l/m 0 min 0 min 0 W/m 6,4 km/h (2 Bft) 95,74 %
02.10.2018 20:28 12,4 C 11,7 C 10,6 C 86 % 1016,3 hPa 0,0 l/m 0 min 0 min 0 W/m 3,2 km/h (1 Bft) 95,74 %
02.10.2018 20:30 12,4 C 11,7 C 11,1 C 86 % 1016,3 hPa 0,0 l/m 0 min 0 min 0 W/m 0,0 km/h (0 Bft) 95,74 %
02.10.2018 20:32 12,4 C 11,7 C 10,6 C 86 % 1016,3 hPa 0,0 l/m 0 min 0 min 0 W/m 0,0 km/h (0 Bft) 95,74 %
02.10.2018 20:34 12,4 C 11,7 C 10,6 C 86 % 1016,4 hPa 0,0 l/m 0 min 0 min 0 W/m 9,7 km/h (2 Bft) 95,74 %
02.10.2018 20:36 12,3 C 11,7 C 10,6 C 86 % 1016,4 hPa 0,0 l/m 0 min 0 min 0 W/m 3,2 km/h (1 Bft) 95,65 %
02.10.2018 20:38 12,3 C 11,7 C 10,6 C 87 % 1016,4 hPa 0,0 l/m 0 min 0 min 0 W/m 0,0 km/h (0 Bft) 95,74 %
02.10.2018 20:40 12,3 C 11,7 C 10,6 C 87 % 1016,4 hPa 0,0 l/m 0 min 0 min 0 W/m 0,0 km/h (0 Bft) 93,62 %
02.10.2018 20:42 12,3 C 11,1 C 10,6 C 87 % 1016,4 hPa 0,0 l/m 0 min 0 min 0 W/m 3,2 km/h (1 Bft) 95,74 %
02.10.2018 20:44 12,3 C 11,1 C 10,6 C 87 % 1016,5 hPa 0,0 l/m 0 min 0 min 0 W/m 3,2 km/h (1 Bft) 97,87 %
02.10.2018 20:46 12,2 C 11,1 C 10,6 C 87 % 1016,5 hPa 0,0 l/m 0 min 0 min 0 W/m 3,2 km/h (1 Bft) 93,48 %
02.10.2018 20:48 12,2 C 11,1 C 10,6 C 87 % 1016,5 hPa 0,0 l/m 0 min 0 min 0 W/m 3,2 km/h (1 Bft) 95,74 %
02.10.2018 20:50 12,2 C 11,7 C 11,1 C 87 % 1016,5 hPa 0,0 l/m 0 min 0 min 0 W/m 3,2 km/h (1 Bft) 95,74 %
02.10.2018 20:52 12,2 C 11,7 C 11,1 C 87 % 1016,5 hPa 0,0 l/m 0 min 0 min 0 W/m 3,2 km/h (1 Bft) 97,87 %
02.10.2018 20:54 12,2 C 11,7 C 11,1 C 87 % 1016,5 hPa 0,0 l/m 0 min 0 min 0 W/m 3,2 km/h (1 Bft) 97,87 %
02.10.2018 20:56 12,2 C 11,7 C 11,1 C 88 % 1016,4 hPa 0,0 l/m 0 min 0 min 0 W/m 3,2 km/h (1 Bft) 97,87 %
02.10.2018 20:58 12,2 C 11,7 C 11,1 C 88 % 1016,4 hPa 0,0 l/m 0 min 0 min 0 W/m 3,2 km/h (1 Bft) 100,00 %
02.10.2018 21:00 12,1 C 11,7 C 11,1 C 88 % 1016,4 hPa 0,0 l/m 0 min 0 min 0 W/m 6,4 km/h (2 Bft) 100,00 %
02.10.2018 21:02 12,1 C 11,7 C 11,1 C 88 % 1016,4 hPa 0,0 l/m 0 min 0 min 0 W/m 3,2 km/h (1 Bft) 100,00 %
02.10.2018 21:04 12,1 C 11,7 C 11,1 C 88 % 1016,3 hPa 0,0 l/m 0 min 0 min 0 W/m 6,4 km/h (2 Bft) 97,87 %
02.10.2018 21:06 12,1 C 11,7 C 11,1 C 88 % 1016,4 hPa 0,0 l/m 0 min 0 min 0 W/m 3,2 km/h (1 Bft) 100,00 %
02.10.2018 21:08 12,1 C 11,7 C 11,1 C 88 % 1016,4 hPa 0,0 l/m 0 min 0 min 0 W/m 3,2 km/h (1 Bft) 100,00 %
02.10.2018 21:10 12,1 C 11,1 C 11,1 C 88 % 1016,5 hPa 0,0 l/m 0 min 0 min 0 W/m 3,2 km/h (1 Bft) 100,00 %
02.10.2018 21:12 12,1 C 11,1 C 11,1 C 88 % 1016,5 hPa 0,0 l/m 0 min 0 min 0 W/m 3,2 km/h (1 Bft) 100,00 %
02.10.2018 21:14 12,1 C 11,1 C 10,6 C 88 % 1016,4 hPa 0,0 l/m 0 min 0 min 0 W/m 3,2 km/h (1 Bft) 100,00 %
02.10.2018 21:16 12,1 C 11,1 C 10,6 C 88 % 1016,4 hPa 0,0 l/m 0 min 0 min 0 W/m 3,2 km/h (1 Bft) 100,00 %
02.10.2018 21:18 12,0 C 11,1 C 11,1 C 88 % 1016,5 hPa 0,0 l/m 0 min 0 min 0 W/m 3,2 km/h (1 Bft) 100,00 %
02.10.2018 21:20 12,0 C 11,7 C 10,6 C 88 % 1016,5 hPa 0,0 l/m 0 min 0 min 0 W/m 3,2 km/h (1 Bft) 100,00 %
02.10.2018 21:22 12,0 C 11,7 C 10,6 C 88 % 1016,5 hPa 0,0 l/m 0 min 0 min 0 W/m 3,2 km/h (1 Bft) 100,00 %
02.10.2018 21:24 12,0 C 11,1 C 10,6 C 88 % 1016,6 hPa 0,0 l/m 0 min 0 min 0 W/m 0,0 km/h (0 Bft) 100,00 %
02.10.2018 21:26 12,0 C 11,1 C 10,6 C 88 % 1016,6 hPa 0,0 l/m 0 min 0 min 0 W/m 3,2 km/h (1 Bft) 97,87 %
02.10.2018 21:28 12,0 C 11,1 C 10,6 C 88 % 1016,6 hPa 0,0 l/m 0 min 0 min 0 W/m 3,2 km/h (1 Bft) 97,87 %
02.10.2018 21:30 12,0 C 11,1 C 10,6 C 88 % 1016,7 hPa 0,0 l/m 0 min 0 min 0 W/m 0,0 km/h (0 Bft) 93,62 %
02.10.2018 21:32 12,0 C 11,1 C 10,6 C 88 % 1016,7 hPa 0,0 l/m 0 min 0 min 0 W/m 0,0 km/h (0 Bft) 100,00 %
02.10.2018 21:34 11,9 C 11,1 C 10,6 C 88 % 1016,7 hPa 0,0 l/m 0 min 0 min 0 W/m 0,0 km/h (0 Bft) 100,00 %
02.10.2018 21:36 11,9 C 10,6 C 10,0 C 88 % 1016,7 hPa 0,0 l/m 0 min 0 min 0 W/m 3,2 km/h (1 Bft) 100,00 %
02.10.2018 21:38 11,9 C 10,6 C 10,0 C 88 % 1016,8 hPa 0,0 l/m 0 min 0 min 0 W/m 0,0 km/h (0 Bft) 100,00 %
02.10.2018 21:40 11,9 C 10,6 C 10,0 C 88 % 1016,8 hPa 0,0 l/m 0 min 0 min 0 W/m 0,0 km/h (0 Bft) 97,87 %
02.10.2018 21:42 11,9 C 10,6 C 10,0 C 88 % 1016,8 hPa 0,0 l/m 0 min 0 min 0 W/m 0,0 km/h (0 Bft) 100,00 %
02.10.2018 21:44 11,9 C 10,6 C 10,0 C 88 % 1016,8 hPa 0,0 l/m 0 min 0 min 0 W/m 0,0 km/h (0 Bft) 100,00 %
02.10.2018 21:46 11,9 C 10,6 C 10,0 C 88 % 1016,8 hPa 0,0 l/m 0 min 0 min 0 W/m 0,0 km/h (0 Bft) 100,00 %
02.10.2018 21:48 11,8 C 10,6 C 10,0 C 88 % 1016,7 hPa 0,0 l/m 0 min 0 min 0 W/m 0,0 km/h (0 Bft) 100,00 %
02.10.2018 21:50 11,8 C 10,6 C 10,0 C 88 % 1016,8 hPa 0,0 l/m 0 min 0 min 0 W/m 3,2 km/h (1 Bft) 100,00 %
02.10.2018 21:52 11,8 C 10,6 C 10,0 C 88 % 1016,8 hPa 0,0 l/m 0 min 0 min 0 W/m 0,0 km/h (0 Bft) 100,00 %
02.10.2018 21:54 11,8 C 10,6 C 10,0 C 88 % 1016,8 hPa 0,0 l/m 0 min 0 min 0 W/m 3,2 km/h (1 Bft) 97,87 %
02.10.2018 21:56 11,8 C 10,6 C 10,0 C 88 % 1016,8 hPa 0,0 l/m 0 min 0 min 0 W/m 3,2 km/h (1 Bft) 100,00 %
02.10.2018 21:58 11,7 C 10,6 C 10,0 C 88 % 1016,8 hPa 0,0 l/m 0 min 0 min 0 W/m 3,2 km/h (1 Bft) 100,00 %
02.10.2018 22:00 11,7 C 10,6 C 10,0 C 88 % 1016,8 hPa 0,0 l/m 0 min 0 min 0 W/m 3,2 km/h (1 Bft) 100,00 %
02.10.2018 22:02 11,7 C 10,6 C 10,0 C 89 % 1016,8 hPa 0,0 l/m 0 min 0 min 0 W/m 3,2 km/h (1 Bft) 100,00 %
02.10.2018 22:04 11,7 C 10,6 C 10,0 C 89 % 1016,7 hPa 0,0 l/m 0 min 0 min 0 W/m 6,4 km/h (2 Bft) 100,00 %
02.10.2018 22:06 11,7 C 10,6 C 10,0 C 89 % 1016,8 hPa 0,0 l/m 0 min 0 min 0 W/m 3,2 km/h (1 Bft) 100,00 %
02.10.2018 22:08 11,6 C 10,6 C 10,0 C 89 % 1016,7 hPa 0,0 l/m 0 min 0 min 0 W/m 3,2 km/h (1 Bft) 100,00 %
02.10.2018 22:10 11,6 C 10,6 C 10,6 C 89 % 1016,8 hPa 0,0 l/m 0 min 0 min 0 W/m 3,2 km/h (1 Bft) 100,00 %
02.10.2018 22:12 11,6 C 10,6 C 10,0 C 89 % 1016,7 hPa 0,0 l/m 0 min 0 min 0 W/m 3,2 km/h (1 Bft) 100,00 %
02.10.2018 22:14 11,6 C 10,6 C 10,0 C 89 % 1016,6 hPa 0,0 l/m 0 min 0 min 0 W/m 3,2 km/h (1 Bft) 100,00 %
02.10.2018 22:16 11,6 C 10,6 C 10,0 C 89 % 1016,6 hPa 0,0 l/m 0 min 0 min 0 W/m 3,2 km/h (1 Bft) 100,00 %
02.10.2018 22:18 11,5 C 10,6 C 10,0 C 89 % 1016,7 hPa 0,0 l/m 0 min 0 min 0 W/m 3,2 km/h (1 Bft) 100,00 %
02.10.2018 22:20 11,5 C 10,6 C 10,0 C 89 % 1016,6 hPa 0,0 l/m 0 min 0 min 0 W/m 0,0 km/h (0 Bft) 100,00 %
02.10.2018 22:22 11,5 C 10,6 C 10,0 C 89 % 1016,7 hPa 0,0 l/m 0 min 0 min 0 W/m 0,0 km/h (0 Bft) 100,00 %
02.10.2018 22:24 11,4 C 10,6 C 10,0 C 89 % 1016,7 hPa 0,0 l/m 0 min 0 min 0 W/m 0,0 km/h (0 Bft) 100,00 %
02.10.2018 22:26 11,4 C 10,6 C 10,0 C 89 % 1016,8 hPa 0,0 l/m 0 min 0 min 0 W/m 0,0 km/h (0 Bft) 100,00 %
02.10.2018 22:28 11,4 C 10,6 C 10,0 C 89 % 1016,7 hPa 0,0 l/m 0 min 0 min 0 W/m 3,2 km/h (1 Bft) 97,87 %
02.10.2018 22:30 11,4 C 10,6 C 10,6 C 89 % 1016,7 hPa 0,0 l/m 0 min 0 min 0 W/m 3,2 km/h (1 Bft) 97,87 %
02.10.2018 22:32 11,4 C 10,6 C 10,6 C 89 % 1016,7 hPa 0,0 l/m 0 min 0 min 0 W/m 3,2 km/h (1 Bft) 95,74 %
02.10.2018 22:34 11,4 C 11,1 C 10,6 C 89 % 1016,7 hPa 0,0 l/m 0 min 0 min 0 W/m 3,2 km/h (1 Bft) 100,00 %
02.10.2018 22:36 11,4 C 11,1 C 10,6 C 90 % 1016,8 hPa 0,0 l/m 0 min 0 min 0 W/m 0,0 km/h (0 Bft) 97,87 %
02.10.2018 22:38 11,4 C 11,1 C 10,6 C 90 % 1016,8 hPa 0,0 l/m 0 min 0 min 0 W/m 0,0 km/h (0 Bft) 95,65 %
02.10.2018 22:40 11,4 C 11,1 C 10,6 C 90 % 1016,9 hPa 0,0 l/m 0 min 0 min 0 W/m 0,0 km/h (0 Bft) 97,87 %
02.10.2018 22:42 11,4 C 11,1 C 10,6 C 90 % 1016,8 hPa 0,0 l/m 0 min 0 min 0 W/m 0,0 km/h (0 Bft) 100,00 %
02.10.2018 22:44 11,4 C 11,1 C 10,6 C 90 % 1016,9 hPa 0,0 l/m 0 min 0 min 0 W/m 0,0 km/h (0 Bft) 95,74 %
02.10.2018 22:46 11,4 C 11,1 C 10,6 C 90 % 1016,9 hPa 0,0 l/m 0 min 0 min 0 W/m 0,0 km/h (0 Bft) 95,74 %
02.10.2018 22:48 11,4 C 11,1 C 10,6 C 90 % 1016,9 hPa 0,0 l/m 0 min 0 min 0 W/m 0,0 km/h (0 Bft) 93,62 %
02.10.2018 22:50 11,4 C 11,1 C 10,6 C 90 % 1016,9 hPa 0,0 l/m 0 min 0 min 0 W/m 0,0 km/h (0 Bft) 93,48 %
02.10.2018 22:52 11,4 C 11,1 C 10,6 C 90 % 1016,9 hPa 0,0 l/m 0 min 0 min 0 W/m 0,0 km/h (0 Bft) 93,62 %
02.10.2018 22:54 11,4 C 11,1 C 10,6 C 90 % 1016,9 hPa 0,0 l/m 0 min 0 min 0 W/m 0,0 km/h (0 Bft) 93,62 %
02.10.2018 22:56 11,4 C 11,1 C 10,6 C 90 % 1017,0 hPa 0,0 l/m 0 min 0 min 0 W/m 0,0 km/h (0 Bft) 93,62 %
02.10.2018 22:58 11,4 C 11,1 C 10,6 C 91 % 1016,9 hPa 0,0 l/m 0 min 0 min 0 W/m 0,0 km/h (0 Bft) 91,49 %
02.10.2018 23:00 11,4 C 11,1 C 11,1 C 91 % 1016,9 hPa 0,0 l/m 0 min 0 min 0 W/m 0,0 km/h (0 Bft) 91,49 %
02.10.2018 23:02 11,5 C 11,1 C 11,1 C 91 % 1016,9 hPa 0,0 l/m 0 min 0 min 0 W/m 0,0 km/h (0 Bft) 93,62 %
02.10.2018 23:04 11,5 C 11,7 C 11,1 C 91 % 1016,9 hPa 0,0 l/m 0 min 0 min 0 W/m 0,0 km/h (0 Bft) 91,49 %
02.10.2018 23:06 11,5 C 11,7 C 11,1 C 91 % 1016,9 hPa 0,0 l/m 0 min 0 min 0 W/m 0,0 km/h (0 Bft) 91,49 %
02.10.2018 23:08 11,6 C 11,1 C 11,1 C 91 % 1016,9 hPa 0,0 l/m 0 min 0 min 0 W/m 0,0 km/h (0 Bft) 93,62 %
02.10.2018 23:10 11,6 C 11,7 C 11,1 C 91 % 1016,8 hPa 0,0 l/m 0 min 0 min 0 W/m 0,0 km/h (0 Bft) 93,62 %
02.10.2018 23:12 11,6 C 11,1 C 11,1 C 91 % 1016,8 hPa 0,0 l/m 0 min 0 min 0 W/m 0,0 km/h (0 Bft) 93,62 %
02.10.2018 23:14 11,6 C 11,7 C 11,1 C 91 % 1016,9 hPa 0,0 l/m 0 min 0 min 0 W/m 0,0 km/h (0 Bft) 91,30 %
02.10.2018 23:16 11,6 C 11,7 C 11,1 C 91 % 1016,8 hPa 0,0 l/m 0 min 0 min 0 W/m 0,0 km/h (0 Bft) 91,49 %
02.10.2018 23:18 11,7 C 11,7 C 11,1 C 92 % 1016,8 hPa 0,0 l/m 0 min 0 min 0 W/m 0,0 km/h (0 Bft) 91,49 %
02.10.2018 23:20 11,7 C 11,7 C 11,1 C 92 % 1016,8 hPa 0,0 l/m 0 min 0 min 0 W/m 0,0 km/h (0 Bft) 93,62 %
02.10.2018 23:22 11,7 C 11,7 C 11,1 C 92 % 1016,8 hPa 0,0 l/m 0 min 0 min 0 W/m 0,0 km/h (0 Bft) 93,62 %
02.10.2018 23:24 11,7 C 11,7 C 11,1 C 92 % 1016,8 hPa 0,0 l/m 0 min 0 min 0 W/m 3,2 km/h (1 Bft) 93,62 %
02.10.2018 23:26 11,7 C 11,7 C 11,1 C 92 % 1016,8 hPa 0,0 l/m 0 min 0 min 0 W/m 9,7 km/h (2 Bft) 95,65 %
02.10.2018 23:28 11,8 C 11,7 C 11,1 C 92 % 1016,8 hPa 0,0 l/m 0 min 0 min 0 W/m 0,0 km/h (0 Bft) 95,74 %
02.10.2018 23:30 11,8 C 11,7 C 11,1 C 92 % 1016,8 hPa 0,0 l/m 0 min 0 min 0 W/m 3,2 km/h (1 Bft) 95,74 %
02.10.2018 23:32 11,8 C 11,7 C 11,1 C 92 % 1016,8 hPa 0,0 l/m 0 min 0 min 0 W/m 3,2 km/h (1 Bft) 95,74 %
02.10.2018 23:34 11,8 C 11,7 C 11,1 C 92 % 1016,8 hPa 0,0 l/m 0 min 0 min 0 W/m 3,2 km/h (1 Bft) 91,49 %
02.10.2018 23:36 11,8 C 11,7 C 11,1 C 92 % 1016,8 hPa 0,0 l/m 0 min 0 min 0 W/m 3,2 km/h (1 Bft) 95,74 %
02.10.2018 23:38 11,8 C 11,1 C 11,1 C 92 % 1016,8 hPa 0,0 l/m 0 min 0 min 0 W/m 3,2 km/h (1 Bft) 97,83 %
02.10.2018 23:40 11,8 C 11,1 C 11,1 C 92 % 1016,7 hPa 0,0 l/m 0 min 0 min 0 W/m 0,0 km/h (0 Bft) 95,74 %
02.10.2018 23:42 11,8 C 11,7 C 11,1 C 92 % 1016,9 hPa 0,0 l/m 0 min 0 min 0 W/m 3,2 km/h (1 Bft) 95,74 %
02.10.2018 23:44 11,9 C 11,1 C 10,6 C 92 % 1016,9 hPa 0,0 l/m 0 min 0 min 0 W/m 0,0 km/h (0 Bft) 93,62 %
02.10.2018 23:46 11,9 C 11,7 C 11,1 C 92 % 1016,9 hPa 0,0 l/m 0 min 0 min 0 W/m 0,0 km/h (0 Bft) 93,62 %
02.10.2018 23:48 11,9 C 11,7 C 11,1 C 92 % 1017,0 hPa 0,0 l/m 0 min 0 min 0 W/m 3,2 km/h (1 Bft) 95,65 %
02.10.2018 23:50 11,9 C 11,7 C 10,6 C 92 % 1017,0 hPa 0,0 l/m 0 min 0 min 0 W/m 0,0 km/h (0 Bft) 100,00 %
02.10.2018 23:52 11,9 C 11,7 C 11,1 C 92 % 1017,0 hPa 0,0 l/m 0 min 0 min 0 W/m 0,0 km/h (0 Bft) 97,87 %
02.10.2018 23:54 11,9 C 11,7 C 11,1 C 92 % 1016,9 hPa 0,0 l/m 0 min 0 min 0 W/m 3,2 km/h (1 Bft) 100,00 %
02.10.2018 23:56 11,9 C 11,7 C 10,6 C 92 % 1016,9 hPa 0,0 l/m 0 min 0 min 0 W/m 0,0 km/h (0 Bft) 100,00 %
02.10.2018 23:58 11,9 C 11,7 C 11,1 C 92 % 1016,9 hPa 0,0 l/m 0 min 0 min 0 W/m 3,2 km/h (1 Bft) 100,00 %
_ Min-Zeit 00:00 01:24 00:00 08:04 14:32 - - - - 00:28 07:12
Minimum _ 6,7 C 6,1 C 6,7 C 80 % 1014,2 hPa - - - - 0,0 km/h (0 Bft) 82,61 %
_ Max-Zeit 18:12 16:50 17:40 14:08 00:08 08:40 16:38 12:08 16:32 14:54 00:04
Maximum _ 14,8 C 15,0 C 13,3 C 97 % 1020,6 hPa 0,2 l/m 4 min 4 min 440 W/m 32,2 km/h
W-SW (5 Bft)
100,00 %
Durchschnitt _ 10,2 C 9,6 C 9,3 C 90 % 1016,7 hPa #0,4 l/m #1:50 h #3:04 h 85 W/m 9,0 km/h (2 Bft) 96,80 %
© 2018 W. Hausmann